<?xml version="1.0" encoding="UTF-8" standalone="no" ?>
<gpx xmlns="http://www.topografix.com/GPX/1/1" xmlns:xsi="http://www.w3.org/2001/XMLSchema-instance" xsi:schemaLocation="http://www.topografix.com/GPX/1/1 http://www.topografix.com/GPX/1/1/gpx.xsd" version="1.1" creator="VisuGPX - https://www.visugpx.com">
  <metadata>
    <name>Montée au Pique d\'Endron</name>
    <desc><![CDATA[Montée au Pique d\'Endron]]></desc>
  </metadata>
  <trk>
    <name><![CDATA[Montée au Pique d\'Endron_1]]></name>
    <trkseg>
      <trkpt lat="42.73863" lon="1.51483">
        <ele>1481</ele>
        <time>2014-05-09T07:52:34Z</time>
      </trkpt>
      <trkpt lat="42.73861" lon="1.5149">
        <ele>1481</ele>
        <time>2014-05-09T07:52:44Z</time>
      </trkpt>
      <trkpt lat="42.73858" lon="1.51498">
        <ele>1481</ele>
        <time>2014-05-09T07:52:54Z</time>
      </trkpt>
      <trkpt lat="42.73867" lon="1.515">
        <ele>1486</ele>
        <time>2014-05-09T07:53:04Z</time>
      </trkpt>
      <trkpt lat="42.73874" lon="1.51504">
        <ele>1486</ele>
        <time>2014-05-09T07:53:14Z</time>
      </trkpt>
      <trkpt lat="42.73876" lon="1.51508">
        <ele>1486</ele>
        <time>2014-05-09T07:53:24Z</time>
      </trkpt>
      <trkpt lat="42.73874" lon="1.51512">
        <ele>1491</ele>
        <time>2014-05-09T07:53:34Z</time>
      </trkpt>
      <trkpt lat="42.73867" lon="1.51515">
        <ele>1491</ele>
        <time>2014-05-09T07:53:44Z</time>
      </trkpt>
      <trkpt lat="42.73863" lon="1.51521">
        <ele>1495</ele>
        <time>2014-05-09T07:53:54Z</time>
      </trkpt>
      <trkpt lat="42.73859" lon="1.51527">
        <ele>1495</ele>
        <time>2014-05-09T07:54:05Z</time>
      </trkpt>
      <trkpt lat="42.73856" lon="1.51531">
        <ele>1495</ele>
        <time>2014-05-09T07:54:15Z</time>
      </trkpt>
      <trkpt lat="42.73852" lon="1.51538">
        <ele>1499</ele>
        <time>2014-05-09T07:54:25Z</time>
      </trkpt>
      <trkpt lat="42.73848" lon="1.51542">
        <ele>1499</ele>
        <time>2014-05-09T07:54:35Z</time>
      </trkpt>
      <trkpt lat="42.73846" lon="1.51542">
        <ele>1499</ele>
        <time>2014-05-09T07:54:45Z</time>
      </trkpt>
      <trkpt lat="42.73847" lon="1.51541">
        <ele>1499</ele>
        <time>2014-05-09T07:54:55Z</time>
      </trkpt>
      <trkpt lat="42.73852" lon="1.51539">
        <ele>1499</ele>
        <time>2014-05-09T07:55:05Z</time>
      </trkpt>
      <trkpt lat="42.73852" lon="1.51539">
        <ele>1499</ele>
        <time>2014-05-09T07:55:15Z</time>
      </trkpt>
      <trkpt lat="42.73852" lon="1.51538">
        <ele>1499</ele>
        <time>2014-05-09T07:55:25Z</time>
      </trkpt>
      <trkpt lat="42.73853" lon="1.51538">
        <ele>1499</ele>
        <time>2014-05-09T07:55:35Z</time>
      </trkpt>
      <trkpt lat="42.73853" lon="1.51537">
        <ele>1499</ele>
        <time>2014-05-09T07:55:45Z</time>
      </trkpt>
      <trkpt lat="42.73853" lon="1.51537">
        <ele>1499</ele>
        <time>2014-05-09T07:55:55Z</time>
      </trkpt>
      <trkpt lat="42.73853" lon="1.51537">
        <ele>1499</ele>
        <time>2014-05-09T07:56:05Z</time>
      </trkpt>
      <trkpt lat="42.73852" lon="1.51536">
        <ele>1499</ele>
        <time>2014-05-09T07:56:15Z</time>
      </trkpt>
      <trkpt lat="42.73852" lon="1.51536">
        <ele>1499</ele>
        <time>2014-05-09T07:56:26Z</time>
      </trkpt>
      <trkpt lat="42.73851" lon="1.51535">
        <ele>1499</ele>
        <time>2014-05-09T07:56:36Z</time>
      </trkpt>
      <trkpt lat="42.73849" lon="1.51537">
        <ele>1499</ele>
        <time>2014-05-09T07:56:46Z</time>
      </trkpt>
      <trkpt lat="42.73846" lon="1.51544">
        <ele>1501</ele>
        <time>2014-05-09T07:56:56Z</time>
      </trkpt>
      <trkpt lat="42.73842" lon="1.5155">
        <ele>1501</ele>
        <time>2014-05-09T07:57:06Z</time>
      </trkpt>
      <trkpt lat="42.7384" lon="1.51556">
        <ele>1505</ele>
        <time>2014-05-09T07:57:16Z</time>
      </trkpt>
      <trkpt lat="42.73836" lon="1.51562">
        <ele>1505</ele>
        <time>2014-05-09T07:57:26Z</time>
      </trkpt>
      <trkpt lat="42.73835" lon="1.51565">
        <ele>1505</ele>
        <time>2014-05-09T07:57:36Z</time>
      </trkpt>
      <trkpt lat="42.73834" lon="1.5157">
        <ele>1505</ele>
        <time>2014-05-09T07:57:46Z</time>
      </trkpt>
      <trkpt lat="42.73834" lon="1.51575">
        <ele>1511</ele>
        <time>2014-05-09T07:57:57Z</time>
      </trkpt>
      <trkpt lat="42.73833" lon="1.51581">
        <ele>1511</ele>
        <time>2014-05-09T07:58:07Z</time>
      </trkpt>
      <trkpt lat="42.73832" lon="1.51586">
        <ele>1511</ele>
        <time>2014-05-09T07:58:17Z</time>
      </trkpt>
      <trkpt lat="42.7383" lon="1.51589">
        <ele>1511</ele>
        <time>2014-05-09T07:58:27Z</time>
      </trkpt>
      <trkpt lat="42.73827" lon="1.51589">
        <ele>1516</ele>
        <time>2014-05-09T07:58:37Z</time>
      </trkpt>
      <trkpt lat="42.73824" lon="1.5159">
        <ele>1516</ele>
        <time>2014-05-09T07:58:47Z</time>
      </trkpt>
      <trkpt lat="42.73817" lon="1.5159">
        <ele>1516</ele>
        <time>2014-05-09T07:58:57Z</time>
      </trkpt>
      <trkpt lat="42.73812" lon="1.5159">
        <ele>1521</ele>
        <time>2014-05-09T07:59:07Z</time>
      </trkpt>
      <trkpt lat="42.73808" lon="1.51594">
        <ele>1521</ele>
        <time>2014-05-09T07:59:17Z</time>
      </trkpt>
      <trkpt lat="42.7381" lon="1.516">
        <ele>1521</ele>
        <time>2014-05-09T07:59:27Z</time>
      </trkpt>
      <trkpt lat="42.73811" lon="1.51602">
        <ele>1521</ele>
        <time>2014-05-09T07:59:37Z</time>
      </trkpt>
      <trkpt lat="42.73812" lon="1.51606">
        <ele>1521</ele>
        <time>2014-05-09T07:59:47Z</time>
      </trkpt>
      <trkpt lat="42.73813" lon="1.51609">
        <ele>1521</ele>
        <time>2014-05-09T07:59:57Z</time>
      </trkpt>
      <trkpt lat="42.73813" lon="1.5161">
        <ele>1525</ele>
        <time>2014-05-09T08:00:07Z</time>
      </trkpt>
      <trkpt lat="42.73813" lon="1.51609">
        <ele>1525</ele>
        <time>2014-05-09T08:00:18Z</time>
      </trkpt>
      <trkpt lat="42.73814" lon="1.51609">
        <ele>1525</ele>
        <time>2014-05-09T08:00:28Z</time>
      </trkpt>
      <trkpt lat="42.73814" lon="1.51608">
        <ele>1525</ele>
        <time>2014-05-09T08:00:38Z</time>
      </trkpt>
      <trkpt lat="42.73809" lon="1.51608">
        <ele>1525</ele>
        <time>2014-05-09T08:00:48Z</time>
      </trkpt>
      <trkpt lat="42.73805" lon="1.51608">
        <ele>1525</ele>
        <time>2014-05-09T08:00:58Z</time>
      </trkpt>
      <trkpt lat="42.73801" lon="1.51608">
        <ele>1525</ele>
        <time>2014-05-09T08:01:08Z</time>
      </trkpt>
      <trkpt lat="42.73802" lon="1.51616">
        <ele>1529</ele>
        <time>2014-05-09T08:01:18Z</time>
      </trkpt>
      <trkpt lat="42.73805" lon="1.51622">
        <ele>1525</ele>
        <time>2014-05-09T08:01:28Z</time>
      </trkpt>
      <trkpt lat="42.73804" lon="1.51627">
        <ele>1531</ele>
        <time>2014-05-09T08:01:39Z</time>
      </trkpt>
      <trkpt lat="42.73801" lon="1.51632">
        <ele>1531</ele>
        <time>2014-05-09T08:01:49Z</time>
      </trkpt>
      <trkpt lat="42.73797" lon="1.51636">
        <ele>1531</ele>
        <time>2014-05-09T08:01:59Z</time>
      </trkpt>
      <trkpt lat="42.73793" lon="1.5164">
        <ele>1535</ele>
        <time>2014-05-09T08:02:09Z</time>
      </trkpt>
      <trkpt lat="42.73788" lon="1.51646">
        <ele>1535</ele>
        <time>2014-05-09T08:02:19Z</time>
      </trkpt>
      <trkpt lat="42.73784" lon="1.51652">
        <ele>1539</ele>
        <time>2014-05-09T08:02:29Z</time>
      </trkpt>
      <trkpt lat="42.73781" lon="1.51657">
        <ele>1539</ele>
        <time>2014-05-09T08:02:39Z</time>
      </trkpt>
      <trkpt lat="42.73778" lon="1.51661">
        <ele>1543</ele>
        <time>2014-05-09T08:02:49Z</time>
      </trkpt>
      <trkpt lat="42.73771" lon="1.51671">
        <ele>1543</ele>
        <time>2014-05-09T08:02:59Z</time>
      </trkpt>
      <trkpt lat="42.73767" lon="1.51678">
        <ele>1543</ele>
        <time>2014-05-09T08:03:09Z</time>
      </trkpt>
      <trkpt lat="42.73769" lon="1.51679">
        <ele>1543</ele>
        <time>2014-05-09T08:03:19Z</time>
      </trkpt>
      <trkpt lat="42.73769" lon="1.51678">
        <ele>1543</ele>
        <time>2014-05-09T08:03:29Z</time>
      </trkpt>
      <trkpt lat="42.73768" lon="1.51678">
        <ele>1543</ele>
        <time>2014-05-09T08:03:40Z</time>
      </trkpt>
      <trkpt lat="42.73769" lon="1.51677">
        <ele>1543</ele>
        <time>2014-05-09T08:03:50Z</time>
      </trkpt>
      <trkpt lat="42.73771" lon="1.51677">
        <ele>1543</ele>
        <time>2014-05-09T08:04:00Z</time>
      </trkpt>
      <trkpt lat="42.73772" lon="1.51676">
        <ele>1543</ele>
        <time>2014-05-09T08:04:10Z</time>
      </trkpt>
      <trkpt lat="42.73773" lon="1.51676">
        <ele>1543</ele>
        <time>2014-05-09T08:04:20Z</time>
      </trkpt>
      <trkpt lat="42.73771" lon="1.51675">
        <ele>1543</ele>
        <time>2014-05-09T08:04:30Z</time>
      </trkpt>
      <trkpt lat="42.73769" lon="1.51675">
        <ele>1545</ele>
        <time>2014-05-09T08:04:40Z</time>
      </trkpt>
      <trkpt lat="42.73767" lon="1.51674">
        <ele>1545</ele>
        <time>2014-05-09T08:04:50Z</time>
      </trkpt>
      <trkpt lat="42.73766" lon="1.51674">
        <ele>1545</ele>
        <time>2014-05-09T08:05:00Z</time>
      </trkpt>
      <trkpt lat="42.73768" lon="1.51674">
        <ele>1545</ele>
        <time>2014-05-09T08:05:10Z</time>
      </trkpt>
      <trkpt lat="42.73771" lon="1.51674">
        <ele>1545</ele>
        <time>2014-05-09T08:05:20Z</time>
      </trkpt>
      <trkpt lat="42.73772" lon="1.51676">
        <ele>1545</ele>
        <time>2014-05-09T08:05:30Z</time>
      </trkpt>
      <trkpt lat="42.73774" lon="1.5168">
        <ele>1545</ele>
        <time>2014-05-09T08:05:40Z</time>
      </trkpt>
      <trkpt lat="42.73774" lon="1.51686">
        <ele>1545</ele>
        <time>2014-05-09T08:05:50Z</time>
      </trkpt>
      <trkpt lat="42.73774" lon="1.51695">
        <ele>1550</ele>
        <time>2014-05-09T08:06:01Z</time>
      </trkpt>
      <trkpt lat="42.73771" lon="1.51703">
        <ele>1550</ele>
        <time>2014-05-09T08:06:11Z</time>
      </trkpt>
      <trkpt lat="42.73767" lon="1.51709">
        <ele>1550</ele>
        <time>2014-05-09T08:06:21Z</time>
      </trkpt>
      <trkpt lat="42.73766" lon="1.51718">
        <ele>1550</ele>
        <time>2014-05-09T08:06:31Z</time>
      </trkpt>
      <trkpt lat="42.73768" lon="1.51726">
        <ele>1555</ele>
        <time>2014-05-09T08:06:41Z</time>
      </trkpt>
      <trkpt lat="42.73768" lon="1.51736">
        <ele>1555</ele>
        <time>2014-05-09T08:06:51Z</time>
      </trkpt>
      <trkpt lat="42.73767" lon="1.51744">
        <ele>1555</ele>
        <time>2014-05-09T08:07:01Z</time>
      </trkpt>
      <trkpt lat="42.73767" lon="1.51751">
        <ele>1560</ele>
        <time>2014-05-09T08:07:11Z</time>
      </trkpt>
      <trkpt lat="42.73767" lon="1.5176">
        <ele>1560</ele>
        <time>2014-05-09T08:07:21Z</time>
      </trkpt>
      <trkpt lat="42.73767" lon="1.51766">
        <ele>1560</ele>
        <time>2014-05-09T08:07:31Z</time>
      </trkpt>
      <trkpt lat="42.73768" lon="1.51765">
        <ele>1560</ele>
        <time>2014-05-09T08:07:41Z</time>
      </trkpt>
      <trkpt lat="42.73768" lon="1.51765">
        <ele>1564</ele>
        <time>2014-05-09T08:07:51Z</time>
      </trkpt>
      <trkpt lat="42.73763" lon="1.51762">
        <ele>1564</ele>
        <time>2014-05-09T08:08:01Z</time>
      </trkpt>
      <trkpt lat="42.73757" lon="1.51762">
        <ele>1564</ele>
        <time>2014-05-09T08:08:11Z</time>
      </trkpt>
      <trkpt lat="42.73755" lon="1.51755">
        <ele>1564</ele>
        <time>2014-05-09T08:08:22Z</time>
      </trkpt>
      <trkpt lat="42.73751" lon="1.51757">
        <ele>1560</ele>
        <time>2014-05-09T08:08:32Z</time>
      </trkpt>
      <trkpt lat="42.73745" lon="1.5176">
        <ele>1560</ele>
        <time>2014-05-09T08:08:42Z</time>
      </trkpt>
      <trkpt lat="42.73737" lon="1.51757">
        <ele>1560</ele>
        <time>2014-05-09T08:08:52Z</time>
      </trkpt>
      <trkpt lat="42.73732" lon="1.51753">
        <ele>1560</ele>
        <time>2014-05-09T08:09:02Z</time>
      </trkpt>
      <trkpt lat="42.73727" lon="1.51748">
        <ele>1564</ele>
        <time>2014-05-09T08:09:12Z</time>
      </trkpt>
      <trkpt lat="42.73723" lon="1.51741">
        <ele>1564</ele>
        <time>2014-05-09T08:09:22Z</time>
      </trkpt>
      <trkpt lat="42.73719" lon="1.51737">
        <ele>1564</ele>
        <time>2014-05-09T08:09:32Z</time>
      </trkpt>
      <trkpt lat="42.73716" lon="1.51737">
        <ele>1569</ele>
        <time>2014-05-09T08:09:42Z</time>
      </trkpt>
      <trkpt lat="42.73713" lon="1.51738">
        <ele>1569</ele>
        <time>2014-05-09T08:09:52Z</time>
      </trkpt>
      <trkpt lat="42.73709" lon="1.51736">
        <ele>1569</ele>
        <time>2014-05-09T08:10:02Z</time>
      </trkpt>
      <trkpt lat="42.73703" lon="1.51735">
        <ele>1569</ele>
        <time>2014-05-09T08:10:12Z</time>
      </trkpt>
      <trkpt lat="42.73697" lon="1.51733">
        <ele>1574</ele>
        <time>2014-05-09T08:10:23Z</time>
      </trkpt>
      <trkpt lat="42.73691" lon="1.51728">
        <ele>1574</ele>
        <time>2014-05-09T08:10:33Z</time>
      </trkpt>
      <trkpt lat="42.73686" lon="1.51722">
        <ele>1574</ele>
        <time>2014-05-09T08:10:43Z</time>
      </trkpt>
      <trkpt lat="42.73679" lon="1.51713">
        <ele>1578</ele>
        <time>2014-05-09T08:10:53Z</time>
      </trkpt>
      <trkpt lat="42.73676" lon="1.51706">
        <ele>1578</ele>
        <time>2014-05-09T08:11:03Z</time>
      </trkpt>
      <trkpt lat="42.73672" lon="1.51701">
        <ele>1582</ele>
        <time>2014-05-09T08:11:13Z</time>
      </trkpt>
      <trkpt lat="42.73671" lon="1.51696">
        <ele>1582</ele>
        <time>2014-05-09T08:11:23Z</time>
      </trkpt>
      <trkpt lat="42.73671" lon="1.51697">
        <ele>1582</ele>
        <time>2014-05-09T08:11:33Z</time>
      </trkpt>
      <trkpt lat="42.73669" lon="1.51698">
        <ele>1582</ele>
        <time>2014-05-09T08:11:43Z</time>
      </trkpt>
      <trkpt lat="42.73669" lon="1.51697">
        <ele>1582</ele>
        <time>2014-05-09T08:11:53Z</time>
      </trkpt>
      <trkpt lat="42.73671" lon="1.51696">
        <ele>1582</ele>
        <time>2014-05-09T08:12:03Z</time>
      </trkpt>
      <trkpt lat="42.73673" lon="1.51694">
        <ele>1582</ele>
        <time>2014-05-09T08:12:13Z</time>
      </trkpt>
      <trkpt lat="42.73674" lon="1.51694">
        <ele>1582</ele>
        <time>2014-05-09T08:12:23Z</time>
      </trkpt>
      <trkpt lat="42.73673" lon="1.51695">
        <ele>1582</ele>
        <time>2014-05-09T08:12:34Z</time>
      </trkpt>
      <trkpt lat="42.73673" lon="1.51697">
        <ele>1582</ele>
        <time>2014-05-09T08:12:44Z</time>
      </trkpt>
      <trkpt lat="42.73672" lon="1.51699">
        <ele>1582</ele>
        <time>2014-05-09T08:12:54Z</time>
      </trkpt>
      <trkpt lat="42.7367" lon="1.517">
        <ele>1582</ele>
        <time>2014-05-09T08:13:04Z</time>
      </trkpt>
      <trkpt lat="42.73669" lon="1.51701">
        <ele>1582</ele>
        <time>2014-05-09T08:13:14Z</time>
      </trkpt>
      <trkpt lat="42.73669" lon="1.51701">
        <ele>1582</ele>
        <time>2014-05-09T08:13:24Z</time>
      </trkpt>
      <trkpt lat="42.7367" lon="1.51699">
        <ele>1582</ele>
        <time>2014-05-09T08:13:34Z</time>
      </trkpt>
      <trkpt lat="42.73671" lon="1.51699">
        <ele>1585</ele>
        <time>2014-05-09T08:13:44Z</time>
      </trkpt>
      <trkpt lat="42.73672" lon="1.51698">
        <ele>1585</ele>
        <time>2014-05-09T08:13:54Z</time>
      </trkpt>
      <trkpt lat="42.73664" lon="1.51698">
        <ele>1585</ele>
        <time>2014-05-09T08:14:04Z</time>
      </trkpt>
      <trkpt lat="42.73662" lon="1.51697">
        <ele>1585</ele>
        <time>2014-05-09T08:14:14Z</time>
      </trkpt>
      <trkpt lat="42.73661" lon="1.51696">
        <ele>1585</ele>
        <time>2014-05-09T08:14:24Z</time>
      </trkpt>
      <trkpt lat="42.73662" lon="1.51696">
        <ele>1585</ele>
        <time>2014-05-09T08:14:34Z</time>
      </trkpt>
      <trkpt lat="42.73661" lon="1.51696">
        <ele>1585</ele>
        <time>2014-05-09T08:14:45Z</time>
      </trkpt>
      <trkpt lat="42.73661" lon="1.51698">
        <ele>1585</ele>
        <time>2014-05-09T08:14:55Z</time>
      </trkpt>
      <trkpt lat="42.73671" lon="1.51697">
        <ele>1585</ele>
        <time>2014-05-09T08:15:05Z</time>
      </trkpt>
      <trkpt lat="42.73669" lon="1.5169">
        <ele>1585</ele>
        <time>2014-05-09T08:15:15Z</time>
      </trkpt>
      <trkpt lat="42.73669" lon="1.51673">
        <ele>1585</ele>
        <time>2014-05-09T08:15:25Z</time>
      </trkpt>
      <trkpt lat="42.73666" lon="1.51658">
        <ele>1593</ele>
        <time>2014-05-09T08:15:35Z</time>
      </trkpt>
      <trkpt lat="42.73658" lon="1.51647">
        <ele>1593</ele>
        <time>2014-05-09T08:15:45Z</time>
      </trkpt>
      <trkpt lat="42.73649" lon="1.51639">
        <ele>1593</ele>
        <time>2014-05-09T08:15:55Z</time>
      </trkpt>
      <trkpt lat="42.73637" lon="1.51642">
        <ele>1599</ele>
        <time>2014-05-09T08:16:05Z</time>
      </trkpt>
      <trkpt lat="42.73628" lon="1.51646">
        <ele>1604</ele>
        <time>2014-05-09T08:16:15Z</time>
      </trkpt>
      <trkpt lat="42.73619" lon="1.5165">
        <ele>1604</ele>
        <time>2014-05-09T08:16:25Z</time>
      </trkpt>
      <trkpt lat="42.73615" lon="1.51651">
        <ele>1609</ele>
        <time>2014-05-09T08:16:36Z</time>
      </trkpt>
      <trkpt lat="42.73613" lon="1.51653">
        <ele>1609</ele>
        <time>2014-05-09T08:16:46Z</time>
      </trkpt>
      <trkpt lat="42.73615" lon="1.51653">
        <ele>1609</ele>
        <time>2014-05-09T08:16:56Z</time>
      </trkpt>
      <trkpt lat="42.73611" lon="1.51655">
        <ele>1609</ele>
        <time>2014-05-09T08:17:06Z</time>
      </trkpt>
      <trkpt lat="42.73609" lon="1.51657">
        <ele>1609</ele>
        <time>2014-05-09T08:17:16Z</time>
      </trkpt>
      <trkpt lat="42.7361" lon="1.51657">
        <ele>1609</ele>
        <time>2014-05-09T08:17:26Z</time>
      </trkpt>
      <trkpt lat="42.73613" lon="1.51656">
        <ele>1609</ele>
        <time>2014-05-09T08:17:36Z</time>
      </trkpt>
      <trkpt lat="42.73616" lon="1.51655">
        <ele>1609</ele>
        <time>2014-05-09T08:17:46Z</time>
      </trkpt>
      <trkpt lat="42.73616" lon="1.51657">
        <ele>1609</ele>
        <time>2014-05-09T08:17:56Z</time>
      </trkpt>
      <trkpt lat="42.73613" lon="1.51657">
        <ele>1609</ele>
        <time>2014-05-09T08:18:06Z</time>
      </trkpt>
      <trkpt lat="42.73613" lon="1.51659">
        <ele>1610</ele>
        <time>2014-05-09T08:18:16Z</time>
      </trkpt>
      <trkpt lat="42.73611" lon="1.51661">
        <ele>1610</ele>
        <time>2014-05-09T08:18:26Z</time>
      </trkpt>
      <trkpt lat="42.73607" lon="1.51666">
        <ele>1610</ele>
        <time>2014-05-09T08:18:37Z</time>
      </trkpt>
      <trkpt lat="42.73603" lon="1.51673">
        <ele>1610</ele>
        <time>2014-05-09T08:18:46Z</time>
      </trkpt>
      <trkpt lat="42.73602" lon="1.51681">
        <ele>1610</ele>
        <time>2014-05-09T08:18:57Z</time>
      </trkpt>
      <trkpt lat="42.73601" lon="1.51688">
        <ele>1614</ele>
        <time>2014-05-09T08:19:07Z</time>
      </trkpt>
      <trkpt lat="42.73598" lon="1.51694">
        <ele>1614</ele>
        <time>2014-05-09T08:19:17Z</time>
      </trkpt>
      <trkpt lat="42.73596" lon="1.517">
        <ele>1619</ele>
        <time>2014-05-09T08:19:27Z</time>
      </trkpt>
      <trkpt lat="42.73594" lon="1.51707">
        <ele>1619</ele>
        <time>2014-05-09T08:19:37Z</time>
      </trkpt>
      <trkpt lat="42.73589" lon="1.51714">
        <ele>1619</ele>
        <time>2014-05-09T08:19:47Z</time>
      </trkpt>
      <trkpt lat="42.73585" lon="1.51719">
        <ele>1624</ele>
        <time>2014-05-09T08:19:57Z</time>
      </trkpt>
      <trkpt lat="42.73584" lon="1.51721">
        <ele>1624</ele>
        <time>2014-05-09T08:20:07Z</time>
      </trkpt>
      <trkpt lat="42.7358" lon="1.51723">
        <ele>1624</ele>
        <time>2014-05-09T08:20:17Z</time>
      </trkpt>
      <trkpt lat="42.73578" lon="1.51725">
        <ele>1624</ele>
        <time>2014-05-09T08:20:27Z</time>
      </trkpt>
      <trkpt lat="42.73574" lon="1.51728">
        <ele>1624</ele>
        <time>2014-05-09T08:20:37Z</time>
      </trkpt>
      <trkpt lat="42.73569" lon="1.51735">
        <ele>1628</ele>
        <time>2014-05-09T08:20:47Z</time>
      </trkpt>
      <trkpt lat="42.73565" lon="1.51741">
        <ele>1628</ele>
        <time>2014-05-09T08:20:57Z</time>
      </trkpt>
      <trkpt lat="42.73561" lon="1.51746">
        <ele>1632</ele>
        <time>2014-05-09T08:21:08Z</time>
      </trkpt>
      <trkpt lat="42.73557" lon="1.51747">
        <ele>1632</ele>
        <time>2014-05-09T08:21:18Z</time>
      </trkpt>
      <trkpt lat="42.73558" lon="1.51746">
        <ele>1632</ele>
        <time>2014-05-09T08:21:28Z</time>
      </trkpt>
      <trkpt lat="42.73559" lon="1.51747">
        <ele>1632</ele>
        <time>2014-05-09T08:21:38Z</time>
      </trkpt>
      <trkpt lat="42.7356" lon="1.51748">
        <ele>1632</ele>
        <time>2014-05-09T08:21:48Z</time>
      </trkpt>
      <trkpt lat="42.73561" lon="1.51748">
        <ele>1632</ele>
        <time>2014-05-09T08:21:58Z</time>
      </trkpt>
      <trkpt lat="42.73561" lon="1.51749">
        <ele>1632</ele>
        <time>2014-05-09T08:22:08Z</time>
      </trkpt>
      <trkpt lat="42.73561" lon="1.51749">
        <ele>1632</ele>
        <time>2014-05-09T08:22:18Z</time>
      </trkpt>
      <trkpt lat="42.73561" lon="1.51749">
        <ele>1632</ele>
        <time>2014-05-09T08:22:28Z</time>
      </trkpt>
      <trkpt lat="42.73561" lon="1.51749">
        <ele>1632</ele>
        <time>2014-05-09T08:22:38Z</time>
      </trkpt>
      <trkpt lat="42.7356" lon="1.5175">
        <ele>1632</ele>
        <time>2014-05-09T08:22:48Z</time>
      </trkpt>
      <trkpt lat="42.73557" lon="1.51756">
        <ele>1632</ele>
        <time>2014-05-09T08:22:59Z</time>
      </trkpt>
      <trkpt lat="42.73555" lon="1.51761">
        <ele>1632</ele>
        <time>2014-05-09T08:23:08Z</time>
      </trkpt>
      <trkpt lat="42.73551" lon="1.51764">
        <ele>1632</ele>
        <time>2014-05-09T08:23:19Z</time>
      </trkpt>
      <trkpt lat="42.73548" lon="1.51767">
        <ele>1637</ele>
        <time>2014-05-09T08:23:29Z</time>
      </trkpt>
      <trkpt lat="42.73545" lon="1.51767">
        <ele>1637</ele>
        <time>2014-05-09T08:23:39Z</time>
      </trkpt>
      <trkpt lat="42.73541" lon="1.51768">
        <ele>1637</ele>
        <time>2014-05-09T08:23:49Z</time>
      </trkpt>
      <trkpt lat="42.73538" lon="1.5177">
        <ele>1637</ele>
        <time>2014-05-09T08:23:59Z</time>
      </trkpt>
      <trkpt lat="42.73535" lon="1.51774">
        <ele>1643</ele>
        <time>2014-05-09T08:24:09Z</time>
      </trkpt>
      <trkpt lat="42.73536" lon="1.5178">
        <ele>1643</ele>
        <time>2014-05-09T08:24:19Z</time>
      </trkpt>
      <trkpt lat="42.73539" lon="1.51786">
        <ele>1643</ele>
        <time>2014-05-09T08:24:29Z</time>
      </trkpt>
      <trkpt lat="42.73541" lon="1.51792">
        <ele>1643</ele>
        <time>2014-05-09T08:24:39Z</time>
      </trkpt>
      <trkpt lat="42.73543" lon="1.51797">
        <ele>1648</ele>
        <time>2014-05-09T08:24:49Z</time>
      </trkpt>
      <trkpt lat="42.73542" lon="1.51801">
        <ele>1648</ele>
        <time>2014-05-09T08:24:59Z</time>
      </trkpt>
      <trkpt lat="42.73542" lon="1.51807">
        <ele>1648</ele>
        <time>2014-05-09T08:25:09Z</time>
      </trkpt>
      <trkpt lat="42.73542" lon="1.51811">
        <ele>1648</ele>
        <time>2014-05-09T08:25:19Z</time>
      </trkpt>
      <trkpt lat="42.73542" lon="1.51815">
        <ele>1652</ele>
        <time>2014-05-09T08:25:29Z</time>
      </trkpt>
      <trkpt lat="42.73544" lon="1.51818">
        <ele>1652</ele>
        <time>2014-05-09T08:25:39Z</time>
      </trkpt>
      <trkpt lat="42.73544" lon="1.51817">
        <ele>1652</ele>
        <time>2014-05-09T08:25:50Z</time>
      </trkpt>
      <trkpt lat="42.73547" lon="1.51816">
        <ele>1652</ele>
        <time>2014-05-09T08:26:00Z</time>
      </trkpt>
      <trkpt lat="42.73547" lon="1.51815">
        <ele>1652</ele>
        <time>2014-05-09T08:26:10Z</time>
      </trkpt>
      <trkpt lat="42.73547" lon="1.51814">
        <ele>1652</ele>
        <time>2014-05-09T08:26:20Z</time>
      </trkpt>
      <trkpt lat="42.73547" lon="1.51813">
        <ele>1652</ele>
        <time>2014-05-09T08:26:30Z</time>
      </trkpt>
      <trkpt lat="42.73548" lon="1.51812">
        <ele>1652</ele>
        <time>2014-05-09T08:26:40Z</time>
      </trkpt>
      <trkpt lat="42.73549" lon="1.51812">
        <ele>1652</ele>
        <time>2014-05-09T08:26:50Z</time>
      </trkpt>
      <trkpt lat="42.73549" lon="1.51812">
        <ele>1652</ele>
        <time>2014-05-09T08:27:00Z</time>
      </trkpt>
      <trkpt lat="42.73549" lon="1.51812">
        <ele>1652</ele>
        <time>2014-05-09T08:27:10Z</time>
      </trkpt>
      <trkpt lat="42.73547" lon="1.51812">
        <ele>1652</ele>
        <time>2014-05-09T08:27:20Z</time>
      </trkpt>
      <trkpt lat="42.73547" lon="1.51812">
        <ele>1652</ele>
        <time>2014-05-09T08:27:30Z</time>
      </trkpt>
      <trkpt lat="42.73547" lon="1.51813">
        <ele>1652</ele>
        <time>2014-05-09T08:27:40Z</time>
      </trkpt>
      <trkpt lat="42.73547" lon="1.51813">
        <ele>1652</ele>
        <time>2014-05-09T08:27:50Z</time>
      </trkpt>
      <trkpt lat="42.73547" lon="1.51813">
        <ele>1652</ele>
        <time>2014-05-09T08:28:00Z</time>
      </trkpt>
      <trkpt lat="42.73547" lon="1.51812">
        <ele>1652</ele>
        <time>2014-05-09T08:28:10Z</time>
      </trkpt>
      <trkpt lat="42.73547" lon="1.51812">
        <ele>1652</ele>
        <time>2014-05-09T08:28:20Z</time>
      </trkpt>
      <trkpt lat="42.73547" lon="1.51812">
        <ele>1653</ele>
        <time>2014-05-09T08:28:30Z</time>
      </trkpt>
      <trkpt lat="42.73547" lon="1.51813">
        <ele>1653</ele>
        <time>2014-05-09T08:28:41Z</time>
      </trkpt>
      <trkpt lat="42.73547" lon="1.51813">
        <ele>1653</ele>
        <time>2014-05-09T08:28:51Z</time>
      </trkpt>
      <trkpt lat="42.73547" lon="1.51813">
        <ele>1653</ele>
        <time>2014-05-09T08:29:01Z</time>
      </trkpt>
      <trkpt lat="42.73546" lon="1.51813">
        <ele>1653</ele>
        <time>2014-05-09T08:29:11Z</time>
      </trkpt>
      <trkpt lat="42.73546" lon="1.51813">
        <ele>1653</ele>
        <time>2014-05-09T08:29:21Z</time>
      </trkpt>
      <trkpt lat="42.73542" lon="1.51818">
        <ele>1653</ele>
        <time>2014-05-09T08:29:31Z</time>
      </trkpt>
      <trkpt lat="42.73536" lon="1.51823">
        <ele>1653</ele>
        <time>2014-05-09T08:29:41Z</time>
      </trkpt>
      <trkpt lat="42.73531" lon="1.51823">
        <ele>1657</ele>
        <time>2014-05-09T08:29:51Z</time>
      </trkpt>
      <trkpt lat="42.73526" lon="1.51825">
        <ele>1657</ele>
        <time>2014-05-09T08:30:01Z</time>
      </trkpt>
      <trkpt lat="42.73522" lon="1.51828">
        <ele>1662</ele>
        <time>2014-05-09T08:30:11Z</time>
      </trkpt>
      <trkpt lat="42.7352" lon="1.5183">
        <ele>1662</ele>
        <time>2014-05-09T08:30:21Z</time>
      </trkpt>
      <trkpt lat="42.7352" lon="1.51832">
        <ele>1662</ele>
        <time>2014-05-09T08:30:31Z</time>
      </trkpt>
      <trkpt lat="42.73519" lon="1.51832">
        <ele>1662</ele>
        <time>2014-05-09T08:30:41Z</time>
      </trkpt>
      <trkpt lat="42.73512" lon="1.51841">
        <ele>1662</ele>
        <time>2014-05-09T08:30:51Z</time>
      </trkpt>
      <trkpt lat="42.73507" lon="1.51844">
        <ele>1662</ele>
        <time>2014-05-09T08:31:02Z</time>
      </trkpt>
      <trkpt lat="42.73501" lon="1.51841">
        <ele>1669</ele>
        <time>2014-05-09T08:31:12Z</time>
      </trkpt>
      <trkpt lat="42.73496" lon="1.51841">
        <ele>1669</ele>
        <time>2014-05-09T08:31:22Z</time>
      </trkpt>
      <trkpt lat="42.73497" lon="1.51839">
        <ele>1669</ele>
        <time>2014-05-09T08:31:32Z</time>
      </trkpt>
      <trkpt lat="42.73499" lon="1.51837">
        <ele>1669</ele>
        <time>2014-05-09T08:31:42Z</time>
      </trkpt>
      <trkpt lat="42.73499" lon="1.51837">
        <ele>1669</ele>
        <time>2014-05-09T08:31:52Z</time>
      </trkpt>
      <trkpt lat="42.73493" lon="1.51837">
        <ele>1673</ele>
        <time>2014-05-09T08:32:02Z</time>
      </trkpt>
      <trkpt lat="42.73486" lon="1.51833">
        <ele>1673</ele>
        <time>2014-05-09T08:32:12Z</time>
      </trkpt>
      <trkpt lat="42.7348" lon="1.5183">
        <ele>1677</ele>
        <time>2014-05-09T08:32:22Z</time>
      </trkpt>
      <trkpt lat="42.73475" lon="1.51827">
        <ele>1677</ele>
        <time>2014-05-09T08:32:32Z</time>
      </trkpt>
      <trkpt lat="42.73472" lon="1.51824">
        <ele>1677</ele>
        <time>2014-05-09T08:32:42Z</time>
      </trkpt>
      <trkpt lat="42.73472" lon="1.51823">
        <ele>1677</ele>
        <time>2014-05-09T08:32:52Z</time>
      </trkpt>
      <trkpt lat="42.7347" lon="1.5182">
        <ele>1677</ele>
        <time>2014-05-09T08:33:03Z</time>
      </trkpt>
      <trkpt lat="42.73467" lon="1.51813">
        <ele>1677</ele>
        <time>2014-05-09T08:33:13Z</time>
      </trkpt>
      <trkpt lat="42.73463" lon="1.51808">
        <ele>1677</ele>
        <time>2014-05-09T08:33:23Z</time>
      </trkpt>
      <trkpt lat="42.73458" lon="1.51807">
        <ele>1677</ele>
        <time>2014-05-09T08:33:33Z</time>
      </trkpt>
      <trkpt lat="42.73455" lon="1.51805">
        <ele>1682</ele>
        <time>2014-05-09T08:33:43Z</time>
      </trkpt>
      <trkpt lat="42.73455" lon="1.51805">
        <ele>1682</ele>
        <time>2014-05-09T08:33:53Z</time>
      </trkpt>
      <trkpt lat="42.73454" lon="1.51806">
        <ele>1682</ele>
        <time>2014-05-09T08:34:03Z</time>
      </trkpt>
      <trkpt lat="42.73454" lon="1.51807">
        <ele>1682</ele>
        <time>2014-05-09T08:34:13Z</time>
      </trkpt>
      <trkpt lat="42.73453" lon="1.51807">
        <ele>1682</ele>
        <time>2014-05-09T08:34:23Z</time>
      </trkpt>
      <trkpt lat="42.73454" lon="1.51808">
        <ele>1682</ele>
        <time>2014-05-09T08:34:33Z</time>
      </trkpt>
      <trkpt lat="42.73454" lon="1.51808">
        <ele>1682</ele>
        <time>2014-05-09T08:34:43Z</time>
      </trkpt>
      <trkpt lat="42.73454" lon="1.51808">
        <ele>1682</ele>
        <time>2014-05-09T08:34:53Z</time>
      </trkpt>
      <trkpt lat="42.73454" lon="1.51809">
        <ele>1682</ele>
        <time>2014-05-09T08:35:03Z</time>
      </trkpt>
      <trkpt lat="42.73455" lon="1.51805">
        <ele>1682</ele>
        <time>2014-05-09T08:35:14Z</time>
      </trkpt>
      <trkpt lat="42.7345" lon="1.51799">
        <ele>1682</ele>
        <time>2014-05-09T08:35:24Z</time>
      </trkpt>
      <trkpt lat="42.73446" lon="1.51794">
        <ele>1686</ele>
        <time>2014-05-09T08:35:34Z</time>
      </trkpt>
      <trkpt lat="42.73443" lon="1.51784">
        <ele>1686</ele>
        <time>2014-05-09T08:35:44Z</time>
      </trkpt>
      <trkpt lat="42.73442" lon="1.51776">
        <ele>1686</ele>
        <time>2014-05-09T08:35:54Z</time>
      </trkpt>
      <trkpt lat="42.73443" lon="1.51769">
        <ele>1686</ele>
        <time>2014-05-09T08:36:04Z</time>
      </trkpt>
      <trkpt lat="42.73439" lon="1.51766">
        <ele>1693</ele>
        <time>2014-05-09T08:36:14Z</time>
      </trkpt>
      <trkpt lat="42.73438" lon="1.51767">
        <ele>1693</ele>
        <time>2014-05-09T08:36:24Z</time>
      </trkpt>
      <trkpt lat="42.73436" lon="1.51766">
        <ele>1693</ele>
        <time>2014-05-09T08:36:34Z</time>
      </trkpt>
      <trkpt lat="42.73434" lon="1.5176">
        <ele>1697</ele>
        <time>2014-05-09T08:36:44Z</time>
      </trkpt>
      <trkpt lat="42.73434" lon="1.51761">
        <ele>1697</ele>
        <time>2014-05-09T08:36:54Z</time>
      </trkpt>
      <trkpt lat="42.73433" lon="1.51763">
        <ele>1697</ele>
        <time>2014-05-09T08:37:04Z</time>
      </trkpt>
      <trkpt lat="42.73434" lon="1.51763">
        <ele>1697</ele>
        <time>2014-05-09T08:37:14Z</time>
      </trkpt>
      <trkpt lat="42.73435" lon="1.51765">
        <ele>1697</ele>
        <time>2014-05-09T08:37:24Z</time>
      </trkpt>
      <trkpt lat="42.73436" lon="1.51765">
        <ele>1697</ele>
        <time>2014-05-09T08:37:34Z</time>
      </trkpt>
      <trkpt lat="42.73437" lon="1.51765">
        <ele>1697</ele>
        <time>2014-05-09T08:37:45Z</time>
      </trkpt>
      <trkpt lat="42.73437" lon="1.51761">
        <ele>1697</ele>
        <time>2014-05-09T08:37:55Z</time>
      </trkpt>
      <trkpt lat="42.73436" lon="1.51754">
        <ele>1697</ele>
        <time>2014-05-09T08:38:05Z</time>
      </trkpt>
      <trkpt lat="42.73435" lon="1.51748">
        <ele>1701</ele>
        <time>2014-05-09T08:38:15Z</time>
      </trkpt>
      <trkpt lat="42.73433" lon="1.51743">
        <ele>1701</ele>
        <time>2014-05-09T08:38:25Z</time>
      </trkpt>
      <trkpt lat="42.73431" lon="1.51739">
        <ele>1701</ele>
        <time>2014-05-09T08:38:35Z</time>
      </trkpt>
      <trkpt lat="42.73431" lon="1.51739">
        <ele>1705</ele>
        <time>2014-05-09T08:38:45Z</time>
      </trkpt>
      <trkpt lat="42.73429" lon="1.5174">
        <ele>1705</ele>
        <time>2014-05-09T08:38:55Z</time>
      </trkpt>
      <trkpt lat="42.73427" lon="1.5174">
        <ele>1705</ele>
        <time>2014-05-09T08:39:05Z</time>
      </trkpt>
      <trkpt lat="42.73426" lon="1.51736">
        <ele>1705</ele>
        <time>2014-05-09T08:39:15Z</time>
      </trkpt>
      <trkpt lat="42.73422" lon="1.51731">
        <ele>1705</ele>
        <time>2014-05-09T08:39:25Z</time>
      </trkpt>
      <trkpt lat="42.7342" lon="1.51729">
        <ele>1709</ele>
        <time>2014-05-09T08:39:35Z</time>
      </trkpt>
      <trkpt lat="42.73418" lon="1.51725">
        <ele>1709</ele>
        <time>2014-05-09T08:39:45Z</time>
      </trkpt>
      <trkpt lat="42.73416" lon="1.51725">
        <ele>1709</ele>
        <time>2014-05-09T08:39:55Z</time>
      </trkpt>
      <trkpt lat="42.73415" lon="1.51722">
        <ele>1713</ele>
        <time>2014-05-09T08:40:05Z</time>
      </trkpt>
      <trkpt lat="42.73415" lon="1.51724">
        <ele>1713</ele>
        <time>2014-05-09T08:40:15Z</time>
      </trkpt>
      <trkpt lat="42.73416" lon="1.51722">
        <ele>1713</ele>
        <time>2014-05-09T08:40:25Z</time>
      </trkpt>
      <trkpt lat="42.73413" lon="1.51717">
        <ele>1713</ele>
        <time>2014-05-09T08:40:36Z</time>
      </trkpt>
      <trkpt lat="42.7341" lon="1.51712">
        <ele>1713</ele>
        <time>2014-05-09T08:40:46Z</time>
      </trkpt>
      <trkpt lat="42.73408" lon="1.51707">
        <ele>1720</ele>
        <time>2014-05-09T08:40:56Z</time>
      </trkpt>
      <trkpt lat="42.73407" lon="1.51702">
        <ele>1720</ele>
        <time>2014-05-09T08:41:06Z</time>
      </trkpt>
      <trkpt lat="42.73407" lon="1.51702">
        <ele>1720</ele>
        <time>2014-05-09T08:41:16Z</time>
      </trkpt>
      <trkpt lat="42.73406" lon="1.51703">
        <ele>1720</ele>
        <time>2014-05-09T08:41:26Z</time>
      </trkpt>
      <trkpt lat="42.73406" lon="1.51705">
        <ele>1720</ele>
        <time>2014-05-09T08:41:36Z</time>
      </trkpt>
      <trkpt lat="42.73406" lon="1.51704">
        <ele>1720</ele>
        <time>2014-05-09T08:41:46Z</time>
      </trkpt>
      <trkpt lat="42.73406" lon="1.51704">
        <ele>1720</ele>
        <time>2014-05-09T08:41:56Z</time>
      </trkpt>
      <trkpt lat="42.73407" lon="1.51703">
        <ele>1720</ele>
        <time>2014-05-09T08:42:06Z</time>
      </trkpt>
      <trkpt lat="42.73407" lon="1.51702">
        <ele>1720</ele>
        <time>2014-05-09T08:42:16Z</time>
      </trkpt>
      <trkpt lat="42.73408" lon="1.51704">
        <ele>1720</ele>
        <time>2014-05-09T08:42:26Z</time>
      </trkpt>
      <trkpt lat="42.73407" lon="1.51707">
        <ele>1720</ele>
        <time>2014-05-09T08:42:36Z</time>
      </trkpt>
      <trkpt lat="42.73407" lon="1.51712">
        <ele>1720</ele>
        <time>2014-05-09T08:42:46Z</time>
      </trkpt>
      <trkpt lat="42.73407" lon="1.51706">
        <ele>1720</ele>
        <time>2014-05-09T08:42:57Z</time>
      </trkpt>
      <trkpt lat="42.73405" lon="1.51699">
        <ele>1724</ele>
        <time>2014-05-09T08:43:07Z</time>
      </trkpt>
      <trkpt lat="42.73403" lon="1.51691">
        <ele>1728</ele>
        <time>2014-05-09T08:43:17Z</time>
      </trkpt>
      <trkpt lat="42.73402" lon="1.51686">
        <ele>1728</ele>
        <time>2014-05-09T08:43:27Z</time>
      </trkpt>
      <trkpt lat="42.73401" lon="1.51679">
        <ele>1728</ele>
        <time>2014-05-09T08:43:37Z</time>
      </trkpt>
      <trkpt lat="42.73399" lon="1.51677">
        <ele>1732</ele>
        <time>2014-05-09T08:43:47Z</time>
      </trkpt>
      <trkpt lat="42.73401" lon="1.51677">
        <ele>1732</ele>
        <time>2014-05-09T08:43:57Z</time>
      </trkpt>
      <trkpt lat="42.73401" lon="1.51677">
        <ele>1732</ele>
        <time>2014-05-09T08:44:07Z</time>
      </trkpt>
      <trkpt lat="42.734" lon="1.51679">
        <ele>1732</ele>
        <time>2014-05-09T08:44:17Z</time>
      </trkpt>
      <trkpt lat="42.734" lon="1.51681">
        <ele>1732</ele>
        <time>2014-05-09T08:44:27Z</time>
      </trkpt>
      <trkpt lat="42.73399" lon="1.51682">
        <ele>1732</ele>
        <time>2014-05-09T08:44:37Z</time>
      </trkpt>
      <trkpt lat="42.73399" lon="1.51684">
        <ele>1732</ele>
        <time>2014-05-09T08:44:47Z</time>
      </trkpt>
      <trkpt lat="42.73398" lon="1.51685">
        <ele>1732</ele>
        <time>2014-05-09T08:44:57Z</time>
      </trkpt>
      <trkpt lat="42.73398" lon="1.51687">
        <ele>1732</ele>
        <time>2014-05-09T08:45:08Z</time>
      </trkpt>
      <trkpt lat="42.73399" lon="1.51686">
        <ele>1732</ele>
        <time>2014-05-09T08:45:18Z</time>
      </trkpt>
      <trkpt lat="42.73398" lon="1.51679">
        <ele>1732</ele>
        <time>2014-05-09T08:45:28Z</time>
      </trkpt>
      <trkpt lat="42.73399" lon="1.51672">
        <ele>1737</ele>
        <time>2014-05-09T08:45:38Z</time>
      </trkpt>
      <trkpt lat="42.73398" lon="1.51665">
        <ele>1737</ele>
        <time>2014-05-09T08:45:48Z</time>
      </trkpt>
      <trkpt lat="42.73393" lon="1.51662">
        <ele>1742</ele>
        <time>2014-05-09T08:45:58Z</time>
      </trkpt>
      <trkpt lat="42.73389" lon="1.5166">
        <ele>1742</ele>
        <time>2014-05-09T08:46:08Z</time>
      </trkpt>
      <trkpt lat="42.73389" lon="1.5166">
        <ele>1742</ele>
        <time>2014-05-09T08:46:18Z</time>
      </trkpt>
      <trkpt lat="42.73389" lon="1.51662">
        <ele>1742</ele>
        <time>2014-05-09T08:46:28Z</time>
      </trkpt>
      <trkpt lat="42.73391" lon="1.51664">
        <ele>1742</ele>
        <time>2014-05-09T08:46:38Z</time>
      </trkpt>
      <trkpt lat="42.73392" lon="1.51666">
        <ele>1742</ele>
        <time>2014-05-09T08:46:48Z</time>
      </trkpt>
      <trkpt lat="42.73392" lon="1.51668">
        <ele>1742</ele>
        <time>2014-05-09T08:46:58Z</time>
      </trkpt>
      <trkpt lat="42.73392" lon="1.51669">
        <ele>1742</ele>
        <time>2014-05-09T08:47:08Z</time>
      </trkpt>
      <trkpt lat="42.73392" lon="1.51667">
        <ele>1742</ele>
        <time>2014-05-09T08:47:19Z</time>
      </trkpt>
      <trkpt lat="42.73394" lon="1.51662">
        <ele>1742</ele>
        <time>2014-05-09T08:47:29Z</time>
      </trkpt>
      <trkpt lat="42.73394" lon="1.5166">
        <ele>1742</ele>
        <time>2014-05-09T08:47:39Z</time>
      </trkpt>
      <trkpt lat="42.73394" lon="1.51661">
        <ele>1742</ele>
        <time>2014-05-09T08:47:49Z</time>
      </trkpt>
      <trkpt lat="42.73393" lon="1.51663">
        <ele>1742</ele>
        <time>2014-05-09T08:47:59Z</time>
      </trkpt>
      <trkpt lat="42.73392" lon="1.51667">
        <ele>1742</ele>
        <time>2014-05-09T08:48:09Z</time>
      </trkpt>
      <trkpt lat="42.73391" lon="1.5167">
        <ele>1742</ele>
        <time>2014-05-09T08:48:19Z</time>
      </trkpt>
      <trkpt lat="42.7339" lon="1.51669">
        <ele>1742</ele>
        <time>2014-05-09T08:48:29Z</time>
      </trkpt>
      <trkpt lat="42.7339" lon="1.51667">
        <ele>1742</ele>
        <time>2014-05-09T08:48:39Z</time>
      </trkpt>
      <trkpt lat="42.73391" lon="1.51666">
        <ele>1742</ele>
        <time>2014-05-09T08:48:49Z</time>
      </trkpt>
      <trkpt lat="42.73393" lon="1.51664">
        <ele>1742</ele>
        <time>2014-05-09T08:48:59Z</time>
      </trkpt>
      <trkpt lat="42.73394" lon="1.51663">
        <ele>1742</ele>
        <time>2014-05-09T08:49:09Z</time>
      </trkpt>
      <trkpt lat="42.73393" lon="1.51664">
        <ele>1742</ele>
        <time>2014-05-09T08:49:19Z</time>
      </trkpt>
      <trkpt lat="42.73393" lon="1.51664">
        <ele>1742</ele>
        <time>2014-05-09T08:49:29Z</time>
      </trkpt>
      <trkpt lat="42.73392" lon="1.51664">
        <ele>1742</ele>
        <time>2014-05-09T08:49:39Z</time>
      </trkpt>
      <trkpt lat="42.73392" lon="1.51664">
        <ele>1742</ele>
        <time>2014-05-09T08:49:50Z</time>
      </trkpt>
      <trkpt lat="42.73392" lon="1.51664">
        <ele>1743</ele>
        <time>2014-05-09T08:50:00Z</time>
      </trkpt>
      <trkpt lat="42.73392" lon="1.51664">
        <ele>1743</ele>
        <time>2014-05-09T08:50:10Z</time>
      </trkpt>
      <trkpt lat="42.73392" lon="1.51663">
        <ele>1743</ele>
        <time>2014-05-09T08:50:20Z</time>
      </trkpt>
      <trkpt lat="42.73391" lon="1.51663">
        <ele>1743</ele>
        <time>2014-05-09T08:50:30Z</time>
      </trkpt>
      <trkpt lat="42.73389" lon="1.51659">
        <ele>1743</ele>
        <time>2014-05-09T08:50:40Z</time>
      </trkpt>
      <trkpt lat="42.73388" lon="1.51656">
        <ele>1747</ele>
        <time>2014-05-09T08:50:50Z</time>
      </trkpt>
      <trkpt lat="42.73388" lon="1.51652">
        <ele>1747</ele>
        <time>2014-05-09T08:51:00Z</time>
      </trkpt>
      <trkpt lat="42.73391" lon="1.51647">
        <ele>1747</ele>
        <time>2014-05-09T08:51:10Z</time>
      </trkpt>
      <trkpt lat="42.73391" lon="1.51643">
        <ele>1751</ele>
        <time>2014-05-09T08:51:20Z</time>
      </trkpt>
      <trkpt lat="42.73393" lon="1.51637">
        <ele>1751</ele>
        <time>2014-05-09T08:51:30Z</time>
      </trkpt>
      <trkpt lat="42.73394" lon="1.5163">
        <ele>1751</ele>
        <time>2014-05-09T08:51:40Z</time>
      </trkpt>
      <trkpt lat="42.73399" lon="1.51626">
        <ele>1756</ele>
        <time>2014-05-09T08:51:50Z</time>
      </trkpt>
      <trkpt lat="42.734" lon="1.51619">
        <ele>1756</ele>
        <time>2014-05-09T08:52:00Z</time>
      </trkpt>
      <trkpt lat="42.73399" lon="1.51611">
        <ele>1756</ele>
        <time>2014-05-09T08:52:10Z</time>
      </trkpt>
      <trkpt lat="42.73398" lon="1.51608">
        <ele>1762</ele>
        <time>2014-05-09T08:52:21Z</time>
      </trkpt>
      <trkpt lat="42.734" lon="1.51604">
        <ele>1762</ele>
        <time>2014-05-09T08:52:31Z</time>
      </trkpt>
      <trkpt lat="42.73401" lon="1.51602">
        <ele>1762</ele>
        <time>2014-05-09T08:52:41Z</time>
      </trkpt>
      <trkpt lat="42.73401" lon="1.51602">
        <ele>1762</ele>
        <time>2014-05-09T08:52:51Z</time>
      </trkpt>
      <trkpt lat="42.73402" lon="1.51602">
        <ele>1762</ele>
        <time>2014-05-09T08:53:01Z</time>
      </trkpt>
      <trkpt lat="42.73403" lon="1.51602">
        <ele>1762</ele>
        <time>2014-05-09T08:53:11Z</time>
      </trkpt>
      <trkpt lat="42.73402" lon="1.51603">
        <ele>1762</ele>
        <time>2014-05-09T08:53:21Z</time>
      </trkpt>
      <trkpt lat="42.73397" lon="1.51594">
        <ele>1762</ele>
        <time>2014-05-09T08:53:31Z</time>
      </trkpt>
      <trkpt lat="42.73392" lon="1.51588">
        <ele>1765</ele>
        <time>2014-05-09T08:53:41Z</time>
      </trkpt>
      <trkpt lat="42.73392" lon="1.51586">
        <ele>1765</ele>
        <time>2014-05-09T08:53:51Z</time>
      </trkpt>
      <trkpt lat="42.73391" lon="1.51585">
        <ele>1765</ele>
        <time>2014-05-09T08:54:01Z</time>
      </trkpt>
      <trkpt lat="42.73391" lon="1.51584">
        <ele>1765</ele>
        <time>2014-05-09T08:54:11Z</time>
      </trkpt>
      <trkpt lat="42.73388" lon="1.51586">
        <ele>1765</ele>
        <time>2014-05-09T08:54:21Z</time>
      </trkpt>
      <trkpt lat="42.73388" lon="1.51587">
        <ele>1765</ele>
        <time>2014-05-09T08:54:31Z</time>
      </trkpt>
      <trkpt lat="42.73388" lon="1.51588">
        <ele>1765</ele>
        <time>2014-05-09T08:54:42Z</time>
      </trkpt>
      <trkpt lat="42.73387" lon="1.51591">
        <ele>1765</ele>
        <time>2014-05-09T08:54:52Z</time>
      </trkpt>
      <trkpt lat="42.73388" lon="1.51592">
        <ele>1765</ele>
        <time>2014-05-09T08:55:02Z</time>
      </trkpt>
      <trkpt lat="42.73389" lon="1.51593">
        <ele>1765</ele>
        <time>2014-05-09T08:55:12Z</time>
      </trkpt>
      <trkpt lat="42.7339" lon="1.51593">
        <ele>1766</ele>
        <time>2014-05-09T08:55:22Z</time>
      </trkpt>
      <trkpt lat="42.7339" lon="1.51594">
        <ele>1766</ele>
        <time>2014-05-09T08:55:32Z</time>
      </trkpt>
      <trkpt lat="42.7339" lon="1.51595">
        <ele>1766</ele>
        <time>2014-05-09T08:55:42Z</time>
      </trkpt>
      <trkpt lat="42.73391" lon="1.51595">
        <ele>1766</ele>
        <time>2014-05-09T08:55:52Z</time>
      </trkpt>
      <trkpt lat="42.73391" lon="1.51595">
        <ele>1766</ele>
        <time>2014-05-09T08:56:02Z</time>
      </trkpt>
      <trkpt lat="42.73391" lon="1.51596">
        <ele>1766</ele>
        <time>2014-05-09T08:56:12Z</time>
      </trkpt>
      <trkpt lat="42.73391" lon="1.51596">
        <ele>1766</ele>
        <time>2014-05-09T08:56:22Z</time>
      </trkpt>
      <trkpt lat="42.73391" lon="1.51596">
        <ele>1766</ele>
        <time>2014-05-09T08:56:33Z</time>
      </trkpt>
      <trkpt lat="42.73392" lon="1.51596">
        <ele>1766</ele>
        <time>2014-05-09T08:56:42Z</time>
      </trkpt>
      <trkpt lat="42.73392" lon="1.51596">
        <ele>1766</ele>
        <time>2014-05-09T08:56:53Z</time>
      </trkpt>
      <trkpt lat="42.73392" lon="1.51596">
        <ele>1766</ele>
        <time>2014-05-09T08:57:03Z</time>
      </trkpt>
      <trkpt lat="42.73391" lon="1.51596">
        <ele>1765</ele>
        <time>2014-05-09T08:57:13Z</time>
      </trkpt>
      <trkpt lat="42.73391" lon="1.51597">
        <ele>1765</ele>
        <time>2014-05-09T08:57:23Z</time>
      </trkpt>
      <trkpt lat="42.73391" lon="1.51597">
        <ele>1765</ele>
        <time>2014-05-09T08:57:33Z</time>
      </trkpt>
      <trkpt lat="42.73389" lon="1.51597">
        <ele>1765</ele>
        <time>2014-05-09T08:57:43Z</time>
      </trkpt>
      <trkpt lat="42.73384" lon="1.51599">
        <ele>1765</ele>
        <time>2014-05-09T08:57:53Z</time>
      </trkpt>
      <trkpt lat="42.7338" lon="1.51602">
        <ele>1765</ele>
        <time>2014-05-09T08:58:03Z</time>
      </trkpt>
      <trkpt lat="42.73375" lon="1.51604">
        <ele>1770</ele>
        <time>2014-05-09T08:58:13Z</time>
      </trkpt>
      <trkpt lat="42.73369" lon="1.51605">
        <ele>1770</ele>
        <time>2014-05-09T08:58:23Z</time>
      </trkpt>
      <trkpt lat="42.73366" lon="1.51608">
        <ele>1770</ele>
        <time>2014-05-09T08:58:33Z</time>
      </trkpt>
      <trkpt lat="42.73363" lon="1.51613">
        <ele>1774</ele>
        <time>2014-05-09T08:58:43Z</time>
      </trkpt>
      <trkpt lat="42.73363" lon="1.51615">
        <ele>1774</ele>
        <time>2014-05-09T08:58:53Z</time>
      </trkpt>
      <trkpt lat="42.73361" lon="1.51617">
        <ele>1774</ele>
        <time>2014-05-09T08:59:04Z</time>
      </trkpt>
      <trkpt lat="42.73356" lon="1.51614">
        <ele>1774</ele>
        <time>2014-05-09T08:59:14Z</time>
      </trkpt>
      <trkpt lat="42.73353" lon="1.51614">
        <ele>1774</ele>
        <time>2014-05-09T08:59:24Z</time>
      </trkpt>
      <trkpt lat="42.7335" lon="1.51614">
        <ele>1774</ele>
        <time>2014-05-09T08:59:34Z</time>
      </trkpt>
      <trkpt lat="42.73347" lon="1.51615">
        <ele>1778</ele>
        <time>2014-05-09T08:59:44Z</time>
      </trkpt>
      <trkpt lat="42.73345" lon="1.51616">
        <ele>1778</ele>
        <time>2014-05-09T08:59:54Z</time>
      </trkpt>
      <trkpt lat="42.73342" lon="1.51617">
        <ele>1778</ele>
        <time>2014-05-09T09:00:04Z</time>
      </trkpt>
      <trkpt lat="42.73336" lon="1.51619">
        <ele>1778</ele>
        <time>2014-05-09T09:00:14Z</time>
      </trkpt>
      <trkpt lat="42.7333" lon="1.51624">
        <ele>1778</ele>
        <time>2014-05-09T09:00:24Z</time>
      </trkpt>
      <trkpt lat="42.73324" lon="1.51628">
        <ele>1783</ele>
        <time>2014-05-09T09:00:34Z</time>
      </trkpt>
      <trkpt lat="42.73317" lon="1.51633">
        <ele>1783</ele>
        <time>2014-05-09T09:00:44Z</time>
      </trkpt>
      <trkpt lat="42.73312" lon="1.51639">
        <ele>1783</ele>
        <time>2014-05-09T09:00:54Z</time>
      </trkpt>
      <trkpt lat="42.7331" lon="1.5164">
        <ele>1783</ele>
        <time>2014-05-09T09:01:04Z</time>
      </trkpt>
      <trkpt lat="42.7331" lon="1.51641">
        <ele>1783</ele>
        <time>2014-05-09T09:01:14Z</time>
      </trkpt>
      <trkpt lat="42.73309" lon="1.51642">
        <ele>1783</ele>
        <time>2014-05-09T09:01:24Z</time>
      </trkpt>
      <trkpt lat="42.73306" lon="1.51643">
        <ele>1783</ele>
        <time>2014-05-09T09:01:35Z</time>
      </trkpt>
      <trkpt lat="42.73301" lon="1.51649">
        <ele>1783</ele>
        <time>2014-05-09T09:01:45Z</time>
      </trkpt>
      <trkpt lat="42.73294" lon="1.51653">
        <ele>1789</ele>
        <time>2014-05-09T09:01:55Z</time>
      </trkpt>
      <trkpt lat="42.73287" lon="1.51657">
        <ele>1789</ele>
        <time>2014-05-09T09:02:05Z</time>
      </trkpt>
      <trkpt lat="42.73281" lon="1.51663">
        <ele>1789</ele>
        <time>2014-05-09T09:02:15Z</time>
      </trkpt>
      <trkpt lat="42.73276" lon="1.51664">
        <ele>1789</ele>
        <time>2014-05-09T09:02:25Z</time>
      </trkpt>
      <trkpt lat="42.73271" lon="1.51669">
        <ele>1794</ele>
        <time>2014-05-09T09:02:35Z</time>
      </trkpt>
      <trkpt lat="42.73267" lon="1.51674">
        <ele>1794</ele>
        <time>2014-05-09T09:02:45Z</time>
      </trkpt>
      <trkpt lat="42.73262" lon="1.51678">
        <ele>1794</ele>
        <time>2014-05-09T09:02:55Z</time>
      </trkpt>
      <trkpt lat="42.73258" lon="1.51683">
        <ele>1798</ele>
        <time>2014-05-09T09:03:05Z</time>
      </trkpt>
      <trkpt lat="42.73254" lon="1.51686">
        <ele>1802</ele>
        <time>2014-05-09T09:03:16Z</time>
      </trkpt>
      <trkpt lat="42.73254" lon="1.51688">
        <ele>1802</ele>
        <time>2014-05-09T09:03:25Z</time>
      </trkpt>
      <trkpt lat="42.73255" lon="1.51687">
        <ele>1802</ele>
        <time>2014-05-09T09:03:36Z</time>
      </trkpt>
      <trkpt lat="42.73254" lon="1.51688">
        <ele>1802</ele>
        <time>2014-05-09T09:03:46Z</time>
      </trkpt>
      <trkpt lat="42.73253" lon="1.51688">
        <ele>1802</ele>
        <time>2014-05-09T09:03:56Z</time>
      </trkpt>
      <trkpt lat="42.73251" lon="1.51691">
        <ele>1802</ele>
        <time>2014-05-09T09:04:06Z</time>
      </trkpt>
      <trkpt lat="42.73251" lon="1.51692">
        <ele>1802</ele>
        <time>2014-05-09T09:04:16Z</time>
      </trkpt>
      <trkpt lat="42.73252" lon="1.51692">
        <ele>1802</ele>
        <time>2014-05-09T09:04:26Z</time>
      </trkpt>
      <trkpt lat="42.73254" lon="1.51692">
        <ele>1802</ele>
        <time>2014-05-09T09:04:36Z</time>
      </trkpt>
      <trkpt lat="42.73255" lon="1.51692">
        <ele>1802</ele>
        <time>2014-05-09T09:04:46Z</time>
      </trkpt>
      <trkpt lat="42.73256" lon="1.51692">
        <ele>1804</ele>
        <time>2014-05-09T09:04:56Z</time>
      </trkpt>
      <trkpt lat="42.73252" lon="1.51698">
        <ele>1804</ele>
        <time>2014-05-09T09:05:06Z</time>
      </trkpt>
      <trkpt lat="42.73249" lon="1.51701">
        <ele>1804</ele>
        <time>2014-05-09T09:05:16Z</time>
      </trkpt>
      <trkpt lat="42.73244" lon="1.51704">
        <ele>1808</ele>
        <time>2014-05-09T09:05:26Z</time>
      </trkpt>
      <trkpt lat="42.73239" lon="1.5171">
        <ele>1808</ele>
        <time>2014-05-09T09:05:36Z</time>
      </trkpt>
      <trkpt lat="42.73233" lon="1.51715">
        <ele>1808</ele>
        <time>2014-05-09T09:05:47Z</time>
      </trkpt>
      <trkpt lat="42.73229" lon="1.51719">
        <ele>1812</ele>
        <time>2014-05-09T09:05:57Z</time>
      </trkpt>
      <trkpt lat="42.73225" lon="1.51724">
        <ele>1812</ele>
        <time>2014-05-09T09:06:07Z</time>
      </trkpt>
      <trkpt lat="42.73222" lon="1.5173">
        <ele>1816</ele>
        <time>2014-05-09T09:06:17Z</time>
      </trkpt>
      <trkpt lat="42.7322" lon="1.51736">
        <ele>1816</ele>
        <time>2014-05-09T09:06:27Z</time>
      </trkpt>
      <trkpt lat="42.73215" lon="1.51739">
        <ele>1816</ele>
        <time>2014-05-09T09:06:37Z</time>
      </trkpt>
      <trkpt lat="42.73214" lon="1.51738">
        <ele>1821</ele>
        <time>2014-05-09T09:06:47Z</time>
      </trkpt>
      <trkpt lat="42.73214" lon="1.51737">
        <ele>1821</ele>
        <time>2014-05-09T09:06:57Z</time>
      </trkpt>
      <trkpt lat="42.73215" lon="1.51735">
        <ele>1821</ele>
        <time>2014-05-09T09:07:07Z</time>
      </trkpt>
      <trkpt lat="42.73216" lon="1.51735">
        <ele>1821</ele>
        <time>2014-05-09T09:07:18Z</time>
      </trkpt>
      <trkpt lat="42.73217" lon="1.51737">
        <ele>1821</ele>
        <time>2014-05-09T09:07:28Z</time>
      </trkpt>
      <trkpt lat="42.73217" lon="1.51738">
        <ele>1821</ele>
        <time>2014-05-09T09:07:38Z</time>
      </trkpt>
      <trkpt lat="42.73215" lon="1.5174">
        <ele>1821</ele>
        <time>2014-05-09T09:07:48Z</time>
      </trkpt>
      <trkpt lat="42.73214" lon="1.51742">
        <ele>1821</ele>
        <time>2014-05-09T09:07:58Z</time>
      </trkpt>
      <trkpt lat="42.73215" lon="1.51743">
        <ele>1821</ele>
        <time>2014-05-09T09:08:08Z</time>
      </trkpt>
      <trkpt lat="42.73215" lon="1.51743">
        <ele>1821</ele>
        <time>2014-05-09T09:08:18Z</time>
      </trkpt>
      <trkpt lat="42.73215" lon="1.51744">
        <ele>1821</ele>
        <time>2014-05-09T09:08:28Z</time>
      </trkpt>
      <trkpt lat="42.73215" lon="1.51744">
        <ele>1821</ele>
        <time>2014-05-09T09:08:38Z</time>
      </trkpt>
      <trkpt lat="42.73215" lon="1.51744">
        <ele>1821</ele>
        <time>2014-05-09T09:08:48Z</time>
      </trkpt>
      <trkpt lat="42.73215" lon="1.51745">
        <ele>1821</ele>
        <time>2014-05-09T09:08:58Z</time>
      </trkpt>
      <trkpt lat="42.73215" lon="1.51745">
        <ele>1821</ele>
        <time>2014-05-09T09:09:08Z</time>
      </trkpt>
      <trkpt lat="42.73215" lon="1.51745">
        <ele>1821</ele>
        <time>2014-05-09T09:09:18Z</time>
      </trkpt>
      <trkpt lat="42.73215" lon="1.51745">
        <ele>1821</ele>
        <time>2014-05-09T09:09:28Z</time>
      </trkpt>
      <trkpt lat="42.73213" lon="1.51746">
        <ele>1821</ele>
        <time>2014-05-09T09:09:38Z</time>
      </trkpt>
      <trkpt lat="42.73207" lon="1.51752">
        <ele>1825</ele>
        <time>2014-05-09T09:09:48Z</time>
      </trkpt>
      <trkpt lat="42.73203" lon="1.51756">
        <ele>1825</ele>
        <time>2014-05-09T09:09:59Z</time>
      </trkpt>
      <trkpt lat="42.73197" lon="1.51762">
        <ele>1825</ele>
        <time>2014-05-09T09:10:09Z</time>
      </trkpt>
      <trkpt lat="42.7319" lon="1.51767">
        <ele>1825</ele>
        <time>2014-05-09T09:10:19Z</time>
      </trkpt>
      <trkpt lat="42.73185" lon="1.51774">
        <ele>1829</ele>
        <time>2014-05-09T09:10:29Z</time>
      </trkpt>
      <trkpt lat="42.73182" lon="1.5178">
        <ele>1829</ele>
        <time>2014-05-09T09:10:39Z</time>
      </trkpt>
      <trkpt lat="42.73178" lon="1.51783">
        <ele>1833</ele>
        <time>2014-05-09T09:10:49Z</time>
      </trkpt>
      <trkpt lat="42.73175" lon="1.51787">
        <ele>1833</ele>
        <time>2014-05-09T09:10:59Z</time>
      </trkpt>
      <trkpt lat="42.73175" lon="1.51793">
        <ele>1837</ele>
        <time>2014-05-09T09:11:09Z</time>
      </trkpt>
      <trkpt lat="42.73172" lon="1.51796">
        <ele>1837</ele>
        <time>2014-05-09T09:11:19Z</time>
      </trkpt>
      <trkpt lat="42.73168" lon="1.518">
        <ele>1841</ele>
        <time>2014-05-09T09:11:29Z</time>
      </trkpt>
      <trkpt lat="42.73165" lon="1.51801">
        <ele>1841</ele>
        <time>2014-05-09T09:11:39Z</time>
      </trkpt>
      <trkpt lat="42.73165" lon="1.518">
        <ele>1841</ele>
        <time>2014-05-09T09:11:49Z</time>
      </trkpt>
      <trkpt lat="42.73166" lon="1.518">
        <ele>1841</ele>
        <time>2014-05-09T09:11:59Z</time>
      </trkpt>
      <trkpt lat="42.73167" lon="1.51799">
        <ele>1841</ele>
        <time>2014-05-09T09:12:10Z</time>
      </trkpt>
      <trkpt lat="42.73168" lon="1.51798">
        <ele>1841</ele>
        <time>2014-05-09T09:12:20Z</time>
      </trkpt>
      <trkpt lat="42.73167" lon="1.51797">
        <ele>1841</ele>
        <time>2014-05-09T09:12:30Z</time>
      </trkpt>
      <trkpt lat="42.73166" lon="1.51798">
        <ele>1841</ele>
        <time>2014-05-09T09:12:40Z</time>
      </trkpt>
      <trkpt lat="42.73166" lon="1.51802">
        <ele>1841</ele>
        <time>2014-05-09T09:12:50Z</time>
      </trkpt>
      <trkpt lat="42.73164" lon="1.5181">
        <ele>1845</ele>
        <time>2014-05-09T09:13:00Z</time>
      </trkpt>
      <trkpt lat="42.73163" lon="1.51812">
        <ele>1845</ele>
        <time>2014-05-09T09:13:10Z</time>
      </trkpt>
      <trkpt lat="42.73162" lon="1.51814">
        <ele>1845</ele>
        <time>2014-05-09T09:13:20Z</time>
      </trkpt>
      <trkpt lat="42.73158" lon="1.5182">
        <ele>1845</ele>
        <time>2014-05-09T09:13:30Z</time>
      </trkpt>
      <trkpt lat="42.73156" lon="1.51827">
        <ele>1849</ele>
        <time>2014-05-09T09:13:40Z</time>
      </trkpt>
      <trkpt lat="42.73156" lon="1.5183">
        <ele>1849</ele>
        <time>2014-05-09T09:13:50Z</time>
      </trkpt>
      <trkpt lat="42.73153" lon="1.51833">
        <ele>1853</ele>
        <time>2014-05-09T09:14:00Z</time>
      </trkpt>
      <trkpt lat="42.73149" lon="1.51839">
        <ele>1853</ele>
        <time>2014-05-09T09:14:11Z</time>
      </trkpt>
      <trkpt lat="42.73146" lon="1.51844">
        <ele>1857</ele>
        <time>2014-05-09T09:14:21Z</time>
      </trkpt>
      <trkpt lat="42.73145" lon="1.51848">
        <ele>1857</ele>
        <time>2014-05-09T09:14:31Z</time>
      </trkpt>
      <trkpt lat="42.73146" lon="1.51847">
        <ele>1857</ele>
        <time>2014-05-09T09:14:41Z</time>
      </trkpt>
      <trkpt lat="42.73145" lon="1.51847">
        <ele>1857</ele>
        <time>2014-05-09T09:14:51Z</time>
      </trkpt>
      <trkpt lat="42.73146" lon="1.51847">
        <ele>1857</ele>
        <time>2014-05-09T09:15:01Z</time>
      </trkpt>
      <trkpt lat="42.73147" lon="1.51847">
        <ele>1857</ele>
        <time>2014-05-09T09:15:11Z</time>
      </trkpt>
      <trkpt lat="42.73148" lon="1.51848">
        <ele>1857</ele>
        <time>2014-05-09T09:15:21Z</time>
      </trkpt>
      <trkpt lat="42.73149" lon="1.51848">
        <ele>1857</ele>
        <time>2014-05-09T09:15:31Z</time>
      </trkpt>
      <trkpt lat="42.73148" lon="1.51848">
        <ele>1857</ele>
        <time>2014-05-09T09:15:41Z</time>
      </trkpt>
      <trkpt lat="42.73148" lon="1.51848">
        <ele>1858</ele>
        <time>2014-05-09T09:15:51Z</time>
      </trkpt>
      <trkpt lat="42.73149" lon="1.51848">
        <ele>1858</ele>
        <time>2014-05-09T09:16:01Z</time>
      </trkpt>
      <trkpt lat="42.73149" lon="1.51849">
        <ele>1858</ele>
        <time>2014-05-09T09:16:11Z</time>
      </trkpt>
      <trkpt lat="42.73147" lon="1.51849">
        <ele>1858</ele>
        <time>2014-05-09T09:16:21Z</time>
      </trkpt>
      <trkpt lat="42.73146" lon="1.51849">
        <ele>1858</ele>
        <time>2014-05-09T09:16:31Z</time>
      </trkpt>
      <trkpt lat="42.73146" lon="1.5185">
        <ele>1858</ele>
        <time>2014-05-09T09:16:41Z</time>
      </trkpt>
      <trkpt lat="42.73146" lon="1.5185">
        <ele>1858</ele>
        <time>2014-05-09T09:16:51Z</time>
      </trkpt>
      <trkpt lat="42.73147" lon="1.51851">
        <ele>1858</ele>
        <time>2014-05-09T09:17:02Z</time>
      </trkpt>
      <trkpt lat="42.73147" lon="1.51851">
        <ele>1858</ele>
        <time>2014-05-09T09:17:12Z</time>
      </trkpt>
      <trkpt lat="42.73148" lon="1.51852">
        <ele>1858</ele>
        <time>2014-05-09T09:17:22Z</time>
      </trkpt>
      <trkpt lat="42.73148" lon="1.51852">
        <ele>1858</ele>
        <time>2014-05-09T09:17:32Z</time>
      </trkpt>
      <trkpt lat="42.73146" lon="1.51854">
        <ele>1858</ele>
        <time>2014-05-09T09:17:42Z</time>
      </trkpt>
      <trkpt lat="42.73141" lon="1.51861">
        <ele>1858</ele>
        <time>2014-05-09T09:17:52Z</time>
      </trkpt>
      <trkpt lat="42.73137" lon="1.51865">
        <ele>1858</ele>
        <time>2014-05-09T09:18:02Z</time>
      </trkpt>
      <trkpt lat="42.73135" lon="1.5187">
        <ele>1863</ele>
        <time>2014-05-09T09:18:12Z</time>
      </trkpt>
      <trkpt lat="42.73132" lon="1.51874">
        <ele>1863</ele>
        <time>2014-05-09T09:18:22Z</time>
      </trkpt>
      <trkpt lat="42.73129" lon="1.51879">
        <ele>1863</ele>
        <time>2014-05-09T09:18:32Z</time>
      </trkpt>
      <trkpt lat="42.73127" lon="1.51885">
        <ele>1868</ele>
        <time>2014-05-09T09:18:42Z</time>
      </trkpt>
      <trkpt lat="42.73125" lon="1.51889">
        <ele>1868</ele>
        <time>2014-05-09T09:18:52Z</time>
      </trkpt>
      <trkpt lat="42.73123" lon="1.51893">
        <ele>1868</ele>
        <time>2014-05-09T09:19:02Z</time>
      </trkpt>
      <trkpt lat="42.7312" lon="1.51897">
        <ele>1868</ele>
        <time>2014-05-09T09:19:13Z</time>
      </trkpt>
      <trkpt lat="42.73117" lon="1.51901">
        <ele>1873</ele>
        <time>2014-05-09T09:19:23Z</time>
      </trkpt>
      <trkpt lat="42.73114" lon="1.51906">
        <ele>1873</ele>
        <time>2014-05-09T09:19:33Z</time>
      </trkpt>
      <trkpt lat="42.73112" lon="1.51911">
        <ele>1877</ele>
        <time>2014-05-09T09:19:43Z</time>
      </trkpt>
      <trkpt lat="42.73113" lon="1.51912">
        <ele>1877</ele>
        <time>2014-05-09T09:19:53Z</time>
      </trkpt>
      <trkpt lat="42.73114" lon="1.51912">
        <ele>1877</ele>
        <time>2014-05-09T09:20:03Z</time>
      </trkpt>
      <trkpt lat="42.73114" lon="1.51913">
        <ele>1877</ele>
        <time>2014-05-09T09:20:13Z</time>
      </trkpt>
      <trkpt lat="42.73114" lon="1.51914">
        <ele>1877</ele>
        <time>2014-05-09T09:20:23Z</time>
      </trkpt>
      <trkpt lat="42.73114" lon="1.51915">
        <ele>1877</ele>
        <time>2014-05-09T09:20:33Z</time>
      </trkpt>
      <trkpt lat="42.73114" lon="1.51915">
        <ele>1877</ele>
        <time>2014-05-09T09:20:43Z</time>
      </trkpt>
      <trkpt lat="42.73112" lon="1.51916">
        <ele>1877</ele>
        <time>2014-05-09T09:20:53Z</time>
      </trkpt>
      <trkpt lat="42.73112" lon="1.51915">
        <ele>1877</ele>
        <time>2014-05-09T09:21:03Z</time>
      </trkpt>
      <trkpt lat="42.73112" lon="1.51915">
        <ele>1878</ele>
        <time>2014-05-09T09:21:13Z</time>
      </trkpt>
      <trkpt lat="42.73113" lon="1.51914">
        <ele>1878</ele>
        <time>2014-05-09T09:21:23Z</time>
      </trkpt>
      <trkpt lat="42.73111" lon="1.51913">
        <ele>1878</ele>
        <time>2014-05-09T09:21:33Z</time>
      </trkpt>
      <trkpt lat="42.73112" lon="1.51912">
        <ele>1878</ele>
        <time>2014-05-09T09:21:43Z</time>
      </trkpt>
      <trkpt lat="42.73112" lon="1.51911">
        <ele>1878</ele>
        <time>2014-05-09T09:21:54Z</time>
      </trkpt>
      <trkpt lat="42.73112" lon="1.51911">
        <ele>1878</ele>
        <time>2014-05-09T09:22:04Z</time>
      </trkpt>
      <trkpt lat="42.73113" lon="1.51912">
        <ele>1878</ele>
        <time>2014-05-09T09:22:14Z</time>
      </trkpt>
      <trkpt lat="42.73112" lon="1.51918">
        <ele>1878</ele>
        <time>2014-05-09T09:22:24Z</time>
      </trkpt>
      <trkpt lat="42.73108" lon="1.51925">
        <ele>1878</ele>
        <time>2014-05-09T09:22:34Z</time>
      </trkpt>
      <trkpt lat="42.73103" lon="1.51929">
        <ele>1883</ele>
        <time>2014-05-09T09:22:44Z</time>
      </trkpt>
      <trkpt lat="42.73101" lon="1.51936">
        <ele>1883</ele>
        <time>2014-05-09T09:22:54Z</time>
      </trkpt>
      <trkpt lat="42.73097" lon="1.5194">
        <ele>1887</ele>
        <time>2014-05-09T09:23:04Z</time>
      </trkpt>
      <trkpt lat="42.73095" lon="1.51943">
        <ele>1887</ele>
        <time>2014-05-09T09:23:14Z</time>
      </trkpt>
      <trkpt lat="42.73093" lon="1.51944">
        <ele>1887</ele>
        <time>2014-05-09T09:23:24Z</time>
      </trkpt>
      <trkpt lat="42.7309" lon="1.51946">
        <ele>1887</ele>
        <time>2014-05-09T09:23:34Z</time>
      </trkpt>
      <trkpt lat="42.73086" lon="1.51947">
        <ele>1892</ele>
        <time>2014-05-09T09:23:44Z</time>
      </trkpt>
      <trkpt lat="42.73085" lon="1.51951">
        <ele>1892</ele>
        <time>2014-05-09T09:23:54Z</time>
      </trkpt>
      <trkpt lat="42.73085" lon="1.51956">
        <ele>1892</ele>
        <time>2014-05-09T09:24:04Z</time>
      </trkpt>
      <trkpt lat="42.73087" lon="1.5196">
        <ele>1897</ele>
        <time>2014-05-09T09:24:14Z</time>
      </trkpt>
      <trkpt lat="42.73085" lon="1.51957">
        <ele>1897</ele>
        <time>2014-05-09T09:24:25Z</time>
      </trkpt>
      <trkpt lat="42.73085" lon="1.51958">
        <ele>1897</ele>
        <time>2014-05-09T09:24:35Z</time>
      </trkpt>
      <trkpt lat="42.73087" lon="1.5196">
        <ele>1897</ele>
        <time>2014-05-09T09:24:45Z</time>
      </trkpt>
      <trkpt lat="42.73088" lon="1.51962">
        <ele>1897</ele>
        <time>2014-05-09T09:24:55Z</time>
      </trkpt>
      <trkpt lat="42.7309" lon="1.51962">
        <ele>1897</ele>
        <time>2014-05-09T09:25:05Z</time>
      </trkpt>
      <trkpt lat="42.73092" lon="1.51962">
        <ele>1897</ele>
        <time>2014-05-09T09:25:15Z</time>
      </trkpt>
      <trkpt lat="42.73091" lon="1.51962">
        <ele>1897</ele>
        <time>2014-05-09T09:25:25Z</time>
      </trkpt>
      <trkpt lat="42.73091" lon="1.51962">
        <ele>1897</ele>
        <time>2014-05-09T09:25:35Z</time>
      </trkpt>
      <trkpt lat="42.73092" lon="1.51962">
        <ele>1898</ele>
        <time>2014-05-09T09:25:45Z</time>
      </trkpt>
      <trkpt lat="42.7309" lon="1.51963">
        <ele>1898</ele>
        <time>2014-05-09T09:25:55Z</time>
      </trkpt>
      <trkpt lat="42.7309" lon="1.51963">
        <ele>1898</ele>
        <time>2014-05-09T09:26:05Z</time>
      </trkpt>
      <trkpt lat="42.7309" lon="1.51963">
        <ele>1898</ele>
        <time>2014-05-09T09:26:15Z</time>
      </trkpt>
      <trkpt lat="42.73089" lon="1.51962">
        <ele>1898</ele>
        <time>2014-05-09T09:26:25Z</time>
      </trkpt>
      <trkpt lat="42.73089" lon="1.51961">
        <ele>1898</ele>
        <time>2014-05-09T09:26:35Z</time>
      </trkpt>
      <trkpt lat="42.73088" lon="1.51962">
        <ele>1898</ele>
        <time>2014-05-09T09:26:45Z</time>
      </trkpt>
      <trkpt lat="42.73087" lon="1.51965">
        <ele>1898</ele>
        <time>2014-05-09T09:26:56Z</time>
      </trkpt>
      <trkpt lat="42.73088" lon="1.51965">
        <ele>1898</ele>
        <time>2014-05-09T09:27:06Z</time>
      </trkpt>
      <trkpt lat="42.73088" lon="1.51965">
        <ele>1898</ele>
        <time>2014-05-09T09:27:16Z</time>
      </trkpt>
      <trkpt lat="42.73089" lon="1.51967">
        <ele>1898</ele>
        <time>2014-05-09T09:27:26Z</time>
      </trkpt>
      <trkpt lat="42.73089" lon="1.51969">
        <ele>1898</ele>
        <time>2014-05-09T09:27:36Z</time>
      </trkpt>
      <trkpt lat="42.73089" lon="1.51968">
        <ele>1898</ele>
        <time>2014-05-09T09:27:46Z</time>
      </trkpt>
      <trkpt lat="42.73088" lon="1.51969">
        <ele>1898</ele>
        <time>2014-05-09T09:27:56Z</time>
      </trkpt>
      <trkpt lat="42.73087" lon="1.51969">
        <ele>1898</ele>
        <time>2014-05-09T09:28:06Z</time>
      </trkpt>
      <trkpt lat="42.73087" lon="1.51969">
        <ele>1898</ele>
        <time>2014-05-09T09:28:16Z</time>
      </trkpt>
      <trkpt lat="42.73088" lon="1.51968">
        <ele>1898</ele>
        <time>2014-05-09T09:28:26Z</time>
      </trkpt>
      <trkpt lat="42.7309" lon="1.51968">
        <ele>1898</ele>
        <time>2014-05-09T09:28:36Z</time>
      </trkpt>
      <trkpt lat="42.73089" lon="1.51967">
        <ele>1898</ele>
        <time>2014-05-09T09:28:46Z</time>
      </trkpt>
      <trkpt lat="42.73088" lon="1.51966">
        <ele>1898</ele>
        <time>2014-05-09T09:28:56Z</time>
      </trkpt>
      <trkpt lat="42.73087" lon="1.51967">
        <ele>1898</ele>
        <time>2014-05-09T09:29:06Z</time>
      </trkpt>
      <trkpt lat="42.73087" lon="1.51967">
        <ele>1898</ele>
        <time>2014-05-09T09:29:16Z</time>
      </trkpt>
      <trkpt lat="42.73087" lon="1.51967">
        <ele>1898</ele>
        <time>2014-05-09T09:29:26Z</time>
      </trkpt>
      <trkpt lat="42.73087" lon="1.51968">
        <ele>1898</ele>
        <time>2014-05-09T09:29:37Z</time>
      </trkpt>
      <trkpt lat="42.73089" lon="1.51968">
        <ele>1898</ele>
        <time>2014-05-09T09:29:47Z</time>
      </trkpt>
      <trkpt lat="42.73087" lon="1.51968">
        <ele>1898</ele>
        <time>2014-05-09T09:29:57Z</time>
      </trkpt>
      <trkpt lat="42.73085" lon="1.51971">
        <ele>1898</ele>
        <time>2014-05-09T09:30:07Z</time>
      </trkpt>
      <trkpt lat="42.73084" lon="1.51977">
        <ele>1903</ele>
        <time>2014-05-09T09:30:17Z</time>
      </trkpt>
      <trkpt lat="42.7308" lon="1.51982">
        <ele>1903</ele>
        <time>2014-05-09T09:30:27Z</time>
      </trkpt>
      <trkpt lat="42.73078" lon="1.51986">
        <ele>1908</ele>
        <time>2014-05-09T09:30:37Z</time>
      </trkpt>
      <trkpt lat="42.73075" lon="1.51988">
        <ele>1908</ele>
        <time>2014-05-09T09:30:47Z</time>
      </trkpt>
      <trkpt lat="42.73075" lon="1.5199">
        <ele>1908</ele>
        <time>2014-05-09T09:30:57Z</time>
      </trkpt>
      <trkpt lat="42.73073" lon="1.51994">
        <ele>1908</ele>
        <time>2014-05-09T09:31:07Z</time>
      </trkpt>
      <trkpt lat="42.73074" lon="1.52">
        <ele>1912</ele>
        <time>2014-05-09T09:31:17Z</time>
      </trkpt>
      <trkpt lat="42.73073" lon="1.52002">
        <ele>1912</ele>
        <time>2014-05-09T09:31:27Z</time>
      </trkpt>
      <trkpt lat="42.73071" lon="1.52001">
        <ele>1912</ele>
        <time>2014-05-09T09:31:38Z</time>
      </trkpt>
      <trkpt lat="42.73069" lon="1.52007">
        <ele>1912</ele>
        <time>2014-05-09T09:31:48Z</time>
      </trkpt>
      <trkpt lat="42.73073" lon="1.52009">
        <ele>1912</ele>
        <time>2014-05-09T09:31:58Z</time>
      </trkpt>
      <trkpt lat="42.73074" lon="1.52009">
        <ele>1912</ele>
        <time>2014-05-09T09:32:08Z</time>
      </trkpt>
      <trkpt lat="42.73074" lon="1.52008">
        <ele>1912</ele>
        <time>2014-05-09T09:32:18Z</time>
      </trkpt>
      <trkpt lat="42.73074" lon="1.52008">
        <ele>1912</ele>
        <time>2014-05-09T09:32:28Z</time>
      </trkpt>
      <trkpt lat="42.73074" lon="1.52007">
        <ele>1912</ele>
        <time>2014-05-09T09:32:38Z</time>
      </trkpt>
      <trkpt lat="42.73074" lon="1.52007">
        <ele>1912</ele>
        <time>2014-05-09T09:32:48Z</time>
      </trkpt>
      <trkpt lat="42.73074" lon="1.52007">
        <ele>1912</ele>
        <time>2014-05-09T09:32:58Z</time>
      </trkpt>
      <trkpt lat="42.73074" lon="1.52009">
        <ele>1912</ele>
        <time>2014-05-09T09:33:08Z</time>
      </trkpt>
      <trkpt lat="42.73074" lon="1.52009">
        <ele>1912</ele>
        <time>2014-05-09T09:33:18Z</time>
      </trkpt>
      <trkpt lat="42.73072" lon="1.52015">
        <ele>1913</ele>
        <time>2014-05-09T09:33:28Z</time>
      </trkpt>
      <trkpt lat="42.73072" lon="1.52025">
        <ele>1913</ele>
        <time>2014-05-09T09:33:38Z</time>
      </trkpt>
      <trkpt lat="42.7307" lon="1.52033">
        <ele>1913</ele>
        <time>2014-05-09T09:33:48Z</time>
      </trkpt>
      <trkpt lat="42.73068" lon="1.52037">
        <ele>1913</ele>
        <time>2014-05-09T09:33:59Z</time>
      </trkpt>
      <trkpt lat="42.73068" lon="1.5204">
        <ele>1913</ele>
        <time>2014-05-09T09:34:09Z</time>
      </trkpt>
      <trkpt lat="42.73068" lon="1.52044">
        <ele>1917</ele>
        <time>2014-05-09T09:34:19Z</time>
      </trkpt>
      <trkpt lat="42.73067" lon="1.52047">
        <ele>1917</ele>
        <time>2014-05-09T09:34:29Z</time>
      </trkpt>
      <trkpt lat="42.73066" lon="1.52049">
        <ele>1917</ele>
        <time>2014-05-09T09:34:39Z</time>
      </trkpt>
      <trkpt lat="42.73065" lon="1.52051">
        <ele>1921</ele>
        <time>2014-05-09T09:34:49Z</time>
      </trkpt>
      <trkpt lat="42.73065" lon="1.52055">
        <ele>1921</ele>
        <time>2014-05-09T09:34:59Z</time>
      </trkpt>
      <trkpt lat="42.73065" lon="1.52058">
        <ele>1921</ele>
        <time>2014-05-09T09:35:09Z</time>
      </trkpt>
      <trkpt lat="42.73062" lon="1.52061">
        <ele>1925</ele>
        <time>2014-05-09T09:35:19Z</time>
      </trkpt>
      <trkpt lat="42.73061" lon="1.52064">
        <ele>1925</ele>
        <time>2014-05-09T09:35:29Z</time>
      </trkpt>
      <trkpt lat="42.73062" lon="1.5207">
        <ele>1925</ele>
        <time>2014-05-09T09:35:39Z</time>
      </trkpt>
      <trkpt lat="42.73061" lon="1.52068">
        <ele>1925</ele>
        <time>2014-05-09T09:35:49Z</time>
      </trkpt>
      <trkpt lat="42.7306" lon="1.52067">
        <ele>1925</ele>
        <time>2014-05-09T09:36:00Z</time>
      </trkpt>
      <trkpt lat="42.7306" lon="1.52066">
        <ele>1925</ele>
        <time>2014-05-09T09:36:10Z</time>
      </trkpt>
      <trkpt lat="42.7306" lon="1.52065">
        <ele>1925</ele>
        <time>2014-05-09T09:36:20Z</time>
      </trkpt>
      <trkpt lat="42.73061" lon="1.52067">
        <ele>1925</ele>
        <time>2014-05-09T09:36:30Z</time>
      </trkpt>
      <trkpt lat="42.73061" lon="1.52069">
        <ele>1925</ele>
        <time>2014-05-09T09:36:40Z</time>
      </trkpt>
      <trkpt lat="42.73061" lon="1.52069">
        <ele>1925</ele>
        <time>2014-05-09T09:36:50Z</time>
      </trkpt>
      <trkpt lat="42.7306" lon="1.52069">
        <ele>1925</ele>
        <time>2014-05-09T09:37:00Z</time>
      </trkpt>
      <trkpt lat="42.73059" lon="1.52068">
        <ele>1925</ele>
        <time>2014-05-09T09:37:10Z</time>
      </trkpt>
      <trkpt lat="42.73059" lon="1.52067">
        <ele>1927</ele>
        <time>2014-05-09T09:37:20Z</time>
      </trkpt>
      <trkpt lat="42.73059" lon="1.52068">
        <ele>1927</ele>
        <time>2014-05-09T09:37:30Z</time>
      </trkpt>
      <trkpt lat="42.73059" lon="1.52069">
        <ele>1927</ele>
        <time>2014-05-09T09:37:40Z</time>
      </trkpt>
      <trkpt lat="42.73059" lon="1.5207">
        <ele>1927</ele>
        <time>2014-05-09T09:37:50Z</time>
      </trkpt>
      <trkpt lat="42.73059" lon="1.5207">
        <ele>1927</ele>
        <time>2014-05-09T09:38:00Z</time>
      </trkpt>
      <trkpt lat="42.73059" lon="1.5207">
        <ele>1927</ele>
        <time>2014-05-09T09:38:10Z</time>
      </trkpt>
      <trkpt lat="42.73059" lon="1.5207">
        <ele>1927</ele>
        <time>2014-05-09T09:38:20Z</time>
      </trkpt>
      <trkpt lat="42.73058" lon="1.52069">
        <ele>1927</ele>
        <time>2014-05-09T09:38:30Z</time>
      </trkpt>
      <trkpt lat="42.73058" lon="1.52069">
        <ele>1927</ele>
        <time>2014-05-09T09:38:40Z</time>
      </trkpt>
      <trkpt lat="42.73058" lon="1.52069">
        <ele>1927</ele>
        <time>2014-05-09T09:38:50Z</time>
      </trkpt>
      <trkpt lat="42.73058" lon="1.52068">
        <ele>1928</ele>
        <time>2014-05-09T09:39:01Z</time>
      </trkpt>
      <trkpt lat="42.73058" lon="1.52068">
        <ele>1928</ele>
        <time>2014-05-09T09:39:11Z</time>
      </trkpt>
      <trkpt lat="42.73058" lon="1.52068">
        <ele>1928</ele>
        <time>2014-05-09T09:39:21Z</time>
      </trkpt>
      <trkpt lat="42.73058" lon="1.52068">
        <ele>1928</ele>
        <time>2014-05-09T09:39:31Z</time>
      </trkpt>
      <trkpt lat="42.73057" lon="1.52068">
        <ele>1928</ele>
        <time>2014-05-09T09:39:41Z</time>
      </trkpt>
      <trkpt lat="42.73057" lon="1.52068">
        <ele>1928</ele>
        <time>2014-05-09T09:39:51Z</time>
      </trkpt>
      <trkpt lat="42.73058" lon="1.52067">
        <ele>1928</ele>
        <time>2014-05-09T09:40:01Z</time>
      </trkpt>
      <trkpt lat="42.73058" lon="1.52067">
        <ele>1928</ele>
        <time>2014-05-09T09:40:11Z</time>
      </trkpt>
      <trkpt lat="42.73059" lon="1.52068">
        <ele>1928</ele>
        <time>2014-05-09T09:40:21Z</time>
      </trkpt>
      <trkpt lat="42.73059" lon="1.52068">
        <ele>1928</ele>
        <time>2014-05-09T09:40:31Z</time>
      </trkpt>
      <trkpt lat="42.73059" lon="1.52068">
        <ele>1927</ele>
        <time>2014-05-09T09:40:41Z</time>
      </trkpt>
      <trkpt lat="42.7306" lon="1.52068">
        <ele>1927</ele>
        <time>2014-05-09T09:40:51Z</time>
      </trkpt>
      <trkpt lat="42.73061" lon="1.52067">
        <ele>1927</ele>
        <time>2014-05-09T09:41:01Z</time>
      </trkpt>
      <trkpt lat="42.73062" lon="1.52068">
        <ele>1927</ele>
        <time>2014-05-09T09:41:11Z</time>
      </trkpt>
      <trkpt lat="42.73061" lon="1.52069">
        <ele>1927</ele>
        <time>2014-05-09T09:41:21Z</time>
      </trkpt>
      <trkpt lat="42.73061" lon="1.52069">
        <ele>1927</ele>
        <time>2014-05-09T09:41:31Z</time>
      </trkpt>
      <trkpt lat="42.73061" lon="1.52069">
        <ele>1927</ele>
        <time>2014-05-09T09:41:41Z</time>
      </trkpt>
      <trkpt lat="42.73061" lon="1.52069">
        <ele>1927</ele>
        <time>2014-05-09T09:41:52Z</time>
      </trkpt>
      <trkpt lat="42.73061" lon="1.52069">
        <ele>1927</ele>
        <time>2014-05-09T09:42:02Z</time>
      </trkpt>
      <trkpt lat="42.7306" lon="1.52069">
        <ele>1927</ele>
        <time>2014-05-09T09:42:12Z</time>
      </trkpt>
      <trkpt lat="42.7306" lon="1.52069">
        <ele>1927</ele>
        <time>2014-05-09T09:42:22Z</time>
      </trkpt>
      <trkpt lat="42.7306" lon="1.52069">
        <ele>1927</ele>
        <time>2014-05-09T09:42:32Z</time>
      </trkpt>
      <trkpt lat="42.73059" lon="1.52069">
        <ele>1928</ele>
        <time>2014-05-09T09:42:42Z</time>
      </trkpt>
      <trkpt lat="42.73059" lon="1.52069">
        <ele>1928</ele>
        <time>2014-05-09T09:42:52Z</time>
      </trkpt>
      <trkpt lat="42.73059" lon="1.52069">
        <ele>1928</ele>
        <time>2014-05-09T09:43:02Z</time>
      </trkpt>
      <trkpt lat="42.73059" lon="1.52069">
        <ele>1928</ele>
        <time>2014-05-09T09:43:12Z</time>
      </trkpt>
      <trkpt lat="42.73058" lon="1.52068">
        <ele>1928</ele>
        <time>2014-05-09T09:43:22Z</time>
      </trkpt>
      <trkpt lat="42.73058" lon="1.52068">
        <ele>1928</ele>
        <time>2014-05-09T09:43:32Z</time>
      </trkpt>
      <trkpt lat="42.73058" lon="1.52068">
        <ele>1928</ele>
        <time>2014-05-09T09:43:42Z</time>
      </trkpt>
      <trkpt lat="42.73056" lon="1.5207">
        <ele>1928</ele>
        <time>2014-05-09T09:43:52Z</time>
      </trkpt>
      <trkpt lat="42.73053" lon="1.52074">
        <ele>1930</ele>
        <time>2014-05-09T09:44:02Z</time>
      </trkpt>
      <trkpt lat="42.73051" lon="1.5208">
        <ele>1930</ele>
        <time>2014-05-09T09:44:12Z</time>
      </trkpt>
      <trkpt lat="42.73049" lon="1.52085">
        <ele>1930</ele>
        <time>2014-05-09T09:44:22Z</time>
      </trkpt>
      <trkpt lat="42.73046" lon="1.52087">
        <ele>1935</ele>
        <time>2014-05-09T09:44:32Z</time>
      </trkpt>
      <trkpt lat="42.73043" lon="1.52088">
        <ele>1935</ele>
        <time>2014-05-09T09:44:43Z</time>
      </trkpt>
      <trkpt lat="42.7304" lon="1.52089">
        <ele>1935</ele>
        <time>2014-05-09T09:44:53Z</time>
      </trkpt>
      <trkpt lat="42.7304" lon="1.5209">
        <ele>1939</ele>
        <time>2014-05-09T09:45:03Z</time>
      </trkpt>
      <trkpt lat="42.73037" lon="1.52092">
        <ele>1939</ele>
        <time>2014-05-09T09:45:13Z</time>
      </trkpt>
      <trkpt lat="42.73034" lon="1.52096">
        <ele>1939</ele>
        <time>2014-05-09T09:45:23Z</time>
      </trkpt>
      <trkpt lat="42.73032" lon="1.521">
        <ele>1943</ele>
        <time>2014-05-09T09:45:33Z</time>
      </trkpt>
      <trkpt lat="42.7303" lon="1.52103">
        <ele>1943</ele>
        <time>2014-05-09T09:45:43Z</time>
      </trkpt>
      <trkpt lat="42.7303" lon="1.52104">
        <ele>1943</ele>
        <time>2014-05-09T09:45:53Z</time>
      </trkpt>
      <trkpt lat="42.73028" lon="1.52106">
        <ele>1943</ele>
        <time>2014-05-09T09:46:03Z</time>
      </trkpt>
      <trkpt lat="42.73024" lon="1.52111">
        <ele>1947</ele>
        <time>2014-05-09T09:46:13Z</time>
      </trkpt>
      <trkpt lat="42.73023" lon="1.52115">
        <ele>1947</ele>
        <time>2014-05-09T09:46:23Z</time>
      </trkpt>
      <trkpt lat="42.73023" lon="1.52118">
        <ele>1947</ele>
        <time>2014-05-09T09:46:34Z</time>
      </trkpt>
      <trkpt lat="42.7302" lon="1.5212">
        <ele>1947</ele>
        <time>2014-05-09T09:46:44Z</time>
      </trkpt>
      <trkpt lat="42.73017" lon="1.52121">
        <ele>1951</ele>
        <time>2014-05-09T09:46:54Z</time>
      </trkpt>
      <trkpt lat="42.73016" lon="1.5212">
        <ele>1951</ele>
        <time>2014-05-09T09:47:04Z</time>
      </trkpt>
      <trkpt lat="42.73015" lon="1.52122">
        <ele>1951</ele>
        <time>2014-05-09T09:47:14Z</time>
      </trkpt>
      <trkpt lat="42.73013" lon="1.52126">
        <ele>1951</ele>
        <time>2014-05-09T09:47:24Z</time>
      </trkpt>
      <trkpt lat="42.73012" lon="1.52124">
        <ele>1955</ele>
        <time>2014-05-09T09:47:34Z</time>
      </trkpt>
      <trkpt lat="42.73009" lon="1.52122">
        <ele>1955</ele>
        <time>2014-05-09T09:47:44Z</time>
      </trkpt>
      <trkpt lat="42.73008" lon="1.52125">
        <ele>1955</ele>
        <time>2014-05-09T09:47:54Z</time>
      </trkpt>
      <trkpt lat="42.73014" lon="1.52127">
        <ele>1955</ele>
        <time>2014-05-09T09:48:04Z</time>
      </trkpt>
      <trkpt lat="42.73015" lon="1.52126">
        <ele>1955</ele>
        <time>2014-05-09T09:48:14Z</time>
      </trkpt>
      <trkpt lat="42.73014" lon="1.52126">
        <ele>1955</ele>
        <time>2014-05-09T09:48:24Z</time>
      </trkpt>
      <trkpt lat="42.73014" lon="1.52126">
        <ele>1955</ele>
        <time>2014-05-09T09:48:34Z</time>
      </trkpt>
      <trkpt lat="42.73014" lon="1.52129">
        <ele>1955</ele>
        <time>2014-05-09T09:48:44Z</time>
      </trkpt>
      <trkpt lat="42.73014" lon="1.52131">
        <ele>1955</ele>
        <time>2014-05-09T09:48:55Z</time>
      </trkpt>
      <trkpt lat="42.73013" lon="1.52132">
        <ele>1955</ele>
        <time>2014-05-09T09:49:05Z</time>
      </trkpt>
      <trkpt lat="42.73013" lon="1.52132">
        <ele>1956</ele>
        <time>2014-05-09T09:49:15Z</time>
      </trkpt>
      <trkpt lat="42.73013" lon="1.52131">
        <ele>1956</ele>
        <time>2014-05-09T09:49:25Z</time>
      </trkpt>
      <trkpt lat="42.73012" lon="1.52131">
        <ele>1956</ele>
        <time>2014-05-09T09:49:35Z</time>
      </trkpt>
      <trkpt lat="42.73011" lon="1.52129">
        <ele>1956</ele>
        <time>2014-05-09T09:49:45Z</time>
      </trkpt>
      <trkpt lat="42.7301" lon="1.52128">
        <ele>1956</ele>
        <time>2014-05-09T09:49:55Z</time>
      </trkpt>
      <trkpt lat="42.7301" lon="1.52127">
        <ele>1956</ele>
        <time>2014-05-09T09:50:05Z</time>
      </trkpt>
      <trkpt lat="42.7301" lon="1.52126">
        <ele>1956</ele>
        <time>2014-05-09T09:50:15Z</time>
      </trkpt>
      <trkpt lat="42.73011" lon="1.52128">
        <ele>1956</ele>
        <time>2014-05-09T09:50:25Z</time>
      </trkpt>
      <trkpt lat="42.73012" lon="1.52129">
        <ele>1956</ele>
        <time>2014-05-09T09:50:35Z</time>
      </trkpt>
      <trkpt lat="42.73013" lon="1.52129">
        <ele>1956</ele>
        <time>2014-05-09T09:50:45Z</time>
      </trkpt>
      <trkpt lat="42.73012" lon="1.52128">
        <ele>1956</ele>
        <time>2014-05-09T09:50:55Z</time>
      </trkpt>
      <trkpt lat="42.73012" lon="1.52125">
        <ele>1956</ele>
        <time>2014-05-09T09:51:05Z</time>
      </trkpt>
      <trkpt lat="42.73013" lon="1.52124">
        <ele>1956</ele>
        <time>2014-05-09T09:51:15Z</time>
      </trkpt>
      <trkpt lat="42.73015" lon="1.52125">
        <ele>1956</ele>
        <time>2014-05-09T09:51:25Z</time>
      </trkpt>
      <trkpt lat="42.73017" lon="1.52126">
        <ele>1956</ele>
        <time>2014-05-09T09:51:35Z</time>
      </trkpt>
      <trkpt lat="42.73018" lon="1.52126">
        <ele>1956</ele>
        <time>2014-05-09T09:51:45Z</time>
      </trkpt>
      <trkpt lat="42.73019" lon="1.52126">
        <ele>1956</ele>
        <time>2014-05-09T09:51:55Z</time>
      </trkpt>
      <trkpt lat="42.73018" lon="1.52126">
        <ele>1957</ele>
        <time>2014-05-09T09:52:06Z</time>
      </trkpt>
      <trkpt lat="42.73016" lon="1.52125">
        <ele>1957</ele>
        <time>2014-05-09T09:52:16Z</time>
      </trkpt>
      <trkpt lat="42.73014" lon="1.52125">
        <ele>1957</ele>
        <time>2014-05-09T09:52:26Z</time>
      </trkpt>
      <trkpt lat="42.73013" lon="1.52125">
        <ele>1957</ele>
        <time>2014-05-09T09:52:36Z</time>
      </trkpt>
      <trkpt lat="42.73006" lon="1.52126">
        <ele>1957</ele>
        <time>2014-05-09T09:52:46Z</time>
      </trkpt>
      <trkpt lat="42.73" lon="1.52133">
        <ele>1957</ele>
        <time>2014-05-09T09:52:56Z</time>
      </trkpt>
      <trkpt lat="42.7299" lon="1.52144">
        <ele>1967</ele>
        <time>2014-05-09T09:53:06Z</time>
      </trkpt>
      <trkpt lat="42.72982" lon="1.52154">
        <ele>1975</ele>
        <time>2014-05-09T09:53:16Z</time>
      </trkpt>
      <trkpt lat="42.72986" lon="1.5216">
        <ele>1975</ele>
        <time>2014-05-09T09:53:26Z</time>
      </trkpt>
      <trkpt lat="42.72984" lon="1.52163">
        <ele>1979</ele>
        <time>2014-05-09T09:53:36Z</time>
      </trkpt>
      <trkpt lat="42.72982" lon="1.52165">
        <ele>1979</ele>
        <time>2014-05-09T09:53:47Z</time>
      </trkpt>
      <trkpt lat="42.72982" lon="1.52165">
        <ele>1979</ele>
        <time>2014-05-09T09:53:57Z</time>
      </trkpt>
      <trkpt lat="42.72984" lon="1.52166">
        <ele>1979</ele>
        <time>2014-05-09T09:54:07Z</time>
      </trkpt>
      <trkpt lat="42.72984" lon="1.52167">
        <ele>1979</ele>
        <time>2014-05-09T09:54:17Z</time>
      </trkpt>
      <trkpt lat="42.72983" lon="1.5217">
        <ele>1979</ele>
        <time>2014-05-09T09:54:27Z</time>
      </trkpt>
      <trkpt lat="42.72985" lon="1.52172">
        <ele>1979</ele>
        <time>2014-05-09T09:54:37Z</time>
      </trkpt>
      <trkpt lat="42.72986" lon="1.52176">
        <ele>1984</ele>
        <time>2014-05-09T09:54:47Z</time>
      </trkpt>
      <trkpt lat="42.72988" lon="1.52177">
        <ele>1984</ele>
        <time>2014-05-09T09:54:57Z</time>
      </trkpt>
      <trkpt lat="42.72989" lon="1.52176">
        <ele>1984</ele>
        <time>2014-05-09T09:55:07Z</time>
      </trkpt>
      <trkpt lat="42.72991" lon="1.52175">
        <ele>1984</ele>
        <time>2014-05-09T09:55:17Z</time>
      </trkpt>
      <trkpt lat="42.72994" lon="1.52176">
        <ele>1984</ele>
        <time>2014-05-09T09:55:27Z</time>
      </trkpt>
      <trkpt lat="42.72997" lon="1.52177">
        <ele>1984</ele>
        <time>2014-05-09T09:55:37Z</time>
      </trkpt>
      <trkpt lat="42.72997" lon="1.52177">
        <ele>1984</ele>
        <time>2014-05-09T09:55:47Z</time>
      </trkpt>
      <trkpt lat="42.72995" lon="1.52182">
        <ele>1984</ele>
        <time>2014-05-09T09:55:58Z</time>
      </trkpt>
      <trkpt lat="42.72992" lon="1.52182">
        <ele>1984</ele>
        <time>2014-05-09T09:56:08Z</time>
      </trkpt>
      <trkpt lat="42.72992" lon="1.52181">
        <ele>1984</ele>
        <time>2014-05-09T09:56:18Z</time>
      </trkpt>
      <trkpt lat="42.72991" lon="1.52182">
        <ele>1984</ele>
        <time>2014-05-09T09:56:28Z</time>
      </trkpt>
      <trkpt lat="42.7299" lon="1.52184">
        <ele>1984</ele>
        <time>2014-05-09T09:56:38Z</time>
      </trkpt>
      <trkpt lat="42.72987" lon="1.52184">
        <ele>1984</ele>
        <time>2014-05-09T09:56:48Z</time>
      </trkpt>
      <trkpt lat="42.72985" lon="1.52185">
        <ele>1988</ele>
        <time>2014-05-09T09:56:58Z</time>
      </trkpt>
      <trkpt lat="42.72982" lon="1.52187">
        <ele>1988</ele>
        <time>2014-05-09T09:57:08Z</time>
      </trkpt>
      <trkpt lat="42.72979" lon="1.52189">
        <ele>1992</ele>
        <time>2014-05-09T09:57:18Z</time>
      </trkpt>
      <trkpt lat="42.72975" lon="1.52187">
        <ele>1992</ele>
        <time>2014-05-09T09:57:28Z</time>
      </trkpt>
      <trkpt lat="42.72977" lon="1.52183">
        <ele>1992</ele>
        <time>2014-05-09T09:57:39Z</time>
      </trkpt>
      <trkpt lat="42.72978" lon="1.52182">
        <ele>1992</ele>
        <time>2014-05-09T09:57:49Z</time>
      </trkpt>
      <trkpt lat="42.72979" lon="1.52182">
        <ele>1992</ele>
        <time>2014-05-09T09:57:59Z</time>
      </trkpt>
      <trkpt lat="42.7298" lon="1.52182">
        <ele>1992</ele>
        <time>2014-05-09T09:58:09Z</time>
      </trkpt>
      <trkpt lat="42.72981" lon="1.52183">
        <ele>1992</ele>
        <time>2014-05-09T09:58:19Z</time>
      </trkpt>
      <trkpt lat="42.72981" lon="1.52183">
        <ele>1992</ele>
        <time>2014-05-09T09:58:29Z</time>
      </trkpt>
      <trkpt lat="42.72981" lon="1.52184">
        <ele>1992</ele>
        <time>2014-05-09T09:58:39Z</time>
      </trkpt>
      <trkpt lat="42.72981" lon="1.52184">
        <ele>1992</ele>
        <time>2014-05-09T09:58:49Z</time>
      </trkpt>
      <trkpt lat="42.72981" lon="1.52185">
        <ele>1992</ele>
        <time>2014-05-09T09:58:59Z</time>
      </trkpt>
      <trkpt lat="42.72981" lon="1.52185">
        <ele>1992</ele>
        <time>2014-05-09T09:59:09Z</time>
      </trkpt>
      <trkpt lat="42.72981" lon="1.52184">
        <ele>1992</ele>
        <time>2014-05-09T09:59:19Z</time>
      </trkpt>
      <trkpt lat="42.72981" lon="1.52185">
        <ele>1992</ele>
        <time>2014-05-09T09:59:29Z</time>
      </trkpt>
      <trkpt lat="42.72981" lon="1.52186">
        <ele>1992</ele>
        <time>2014-05-09T09:59:39Z</time>
      </trkpt>
      <trkpt lat="42.72981" lon="1.52187">
        <ele>1992</ele>
        <time>2014-05-09T09:59:49Z</time>
      </trkpt>
      <trkpt lat="42.7298" lon="1.52186">
        <ele>1992</ele>
        <time>2014-05-09T09:59:59Z</time>
      </trkpt>
      <trkpt lat="42.72979" lon="1.52186">
        <ele>1992</ele>
        <time>2014-05-09T10:00:09Z</time>
      </trkpt>
      <trkpt lat="42.72979" lon="1.52187">
        <ele>1992</ele>
        <time>2014-05-09T10:00:19Z</time>
      </trkpt>
      <trkpt lat="42.72979" lon="1.52187">
        <ele>1992</ele>
        <time>2014-05-09T10:00:30Z</time>
      </trkpt>
      <trkpt lat="42.72979" lon="1.52186">
        <ele>1992</ele>
        <time>2014-05-09T10:00:40Z</time>
      </trkpt>
      <trkpt lat="42.72979" lon="1.52186">
        <ele>1992</ele>
        <time>2014-05-09T10:00:50Z</time>
      </trkpt>
      <trkpt lat="42.72979" lon="1.52186">
        <ele>1992</ele>
        <time>2014-05-09T10:01:00Z</time>
      </trkpt>
      <trkpt lat="42.72979" lon="1.52185">
        <ele>1992</ele>
        <time>2014-05-09T10:01:10Z</time>
      </trkpt>
      <trkpt lat="42.72979" lon="1.52184">
        <ele>1992</ele>
        <time>2014-05-09T10:01:20Z</time>
      </trkpt>
      <trkpt lat="42.72978" lon="1.52189">
        <ele>1992</ele>
        <time>2014-05-09T10:01:30Z</time>
      </trkpt>
      <trkpt lat="42.72979" lon="1.52193">
        <ele>1992</ele>
        <time>2014-05-09T10:01:40Z</time>
      </trkpt>
      <trkpt lat="42.72981" lon="1.52201">
        <ele>1992</ele>
        <time>2014-05-09T10:01:50Z</time>
      </trkpt>
      <trkpt lat="42.72981" lon="1.52209">
        <ele>1999</ele>
        <time>2014-05-09T10:02:00Z</time>
      </trkpt>
      <trkpt lat="42.72979" lon="1.52213">
        <ele>1999</ele>
        <time>2014-05-09T10:02:10Z</time>
      </trkpt>
      <trkpt lat="42.72977" lon="1.52219">
        <ele>2003</ele>
        <time>2014-05-09T10:02:20Z</time>
      </trkpt>
      <trkpt lat="42.72972" lon="1.52223">
        <ele>2003</ele>
        <time>2014-05-09T10:02:30Z</time>
      </trkpt>
      <trkpt lat="42.72971" lon="1.52224">
        <ele>2007</ele>
        <time>2014-05-09T10:02:40Z</time>
      </trkpt>
      <trkpt lat="42.72971" lon="1.52228">
        <ele>2007</ele>
        <time>2014-05-09T10:02:51Z</time>
      </trkpt>
      <trkpt lat="42.72969" lon="1.52234">
        <ele>2007</ele>
        <time>2014-05-09T10:03:01Z</time>
      </trkpt>
      <trkpt lat="42.72966" lon="1.52239">
        <ele>2007</ele>
        <time>2014-05-09T10:03:11Z</time>
      </trkpt>
      <trkpt lat="42.72964" lon="1.52241">
        <ele>2012</ele>
        <time>2014-05-09T10:03:21Z</time>
      </trkpt>
      <trkpt lat="42.72962" lon="1.52244">
        <ele>2012</ele>
        <time>2014-05-09T10:03:31Z</time>
      </trkpt>
      <trkpt lat="42.72958" lon="1.52246">
        <ele>2012</ele>
        <time>2014-05-09T10:03:41Z</time>
      </trkpt>
      <trkpt lat="42.72955" lon="1.52249">
        <ele>2017</ele>
        <time>2014-05-09T10:03:51Z</time>
      </trkpt>
      <trkpt lat="42.72954" lon="1.52249">
        <ele>2017</ele>
        <time>2014-05-09T10:04:01Z</time>
      </trkpt>
      <trkpt lat="42.72953" lon="1.52254">
        <ele>2017</ele>
        <time>2014-05-09T10:04:11Z</time>
      </trkpt>
      <trkpt lat="42.72951" lon="1.52259">
        <ele>2017</ele>
        <time>2014-05-09T10:04:21Z</time>
      </trkpt>
      <trkpt lat="42.72948" lon="1.5226">
        <ele>2022</ele>
        <time>2014-05-09T10:04:31Z</time>
      </trkpt>
      <trkpt lat="42.72944" lon="1.5226">
        <ele>2022</ele>
        <time>2014-05-09T10:04:41Z</time>
      </trkpt>
      <trkpt lat="42.72938" lon="1.52263">
        <ele>2022</ele>
        <time>2014-05-09T10:04:51Z</time>
      </trkpt>
      <trkpt lat="42.72933" lon="1.52266">
        <ele>2027</ele>
        <time>2014-05-09T10:05:01Z</time>
      </trkpt>
      <trkpt lat="42.72931" lon="1.52268">
        <ele>2027</ele>
        <time>2014-05-09T10:05:12Z</time>
      </trkpt>
      <trkpt lat="42.72931" lon="1.5227">
        <ele>2027</ele>
        <time>2014-05-09T10:05:22Z</time>
      </trkpt>
      <trkpt lat="42.72931" lon="1.52271">
        <ele>2027</ele>
        <time>2014-05-09T10:05:32Z</time>
      </trkpt>
      <trkpt lat="42.72927" lon="1.52271">
        <ele>2027</ele>
        <time>2014-05-09T10:05:42Z</time>
      </trkpt>
      <trkpt lat="42.72927" lon="1.5227">
        <ele>2032</ele>
        <time>2014-05-09T10:05:52Z</time>
      </trkpt>
      <trkpt lat="42.72925" lon="1.5227">
        <ele>2032</ele>
        <time>2014-05-09T10:06:02Z</time>
      </trkpt>
      <trkpt lat="42.72927" lon="1.52276">
        <ele>2032</ele>
        <time>2014-05-09T10:06:12Z</time>
      </trkpt>
      <trkpt lat="42.72927" lon="1.52276">
        <ele>2032</ele>
        <time>2014-05-09T10:06:22Z</time>
      </trkpt>
      <trkpt lat="42.72927" lon="1.52276">
        <ele>2032</ele>
        <time>2014-05-09T10:06:32Z</time>
      </trkpt>
      <trkpt lat="42.72927" lon="1.52276">
        <ele>2032</ele>
        <time>2014-05-09T10:06:42Z</time>
      </trkpt>
      <trkpt lat="42.72928" lon="1.52277">
        <ele>2032</ele>
        <time>2014-05-09T10:06:52Z</time>
      </trkpt>
      <trkpt lat="42.72929" lon="1.52277">
        <ele>2032</ele>
        <time>2014-05-09T10:07:02Z</time>
      </trkpt>
      <trkpt lat="42.72928" lon="1.52277">
        <ele>2032</ele>
        <time>2014-05-09T10:07:12Z</time>
      </trkpt>
      <trkpt lat="42.72928" lon="1.52277">
        <ele>2032</ele>
        <time>2014-05-09T10:07:22Z</time>
      </trkpt>
      <trkpt lat="42.72928" lon="1.52276">
        <ele>2034</ele>
        <time>2014-05-09T10:07:32Z</time>
      </trkpt>
      <trkpt lat="42.72927" lon="1.52276">
        <ele>2034</ele>
        <time>2014-05-09T10:07:42Z</time>
      </trkpt>
      <trkpt lat="42.72927" lon="1.52276">
        <ele>2034</ele>
        <time>2014-05-09T10:07:53Z</time>
      </trkpt>
      <trkpt lat="42.72927" lon="1.52276">
        <ele>2034</ele>
        <time>2014-05-09T10:08:03Z</time>
      </trkpt>
      <trkpt lat="42.72927" lon="1.52277">
        <ele>2034</ele>
        <time>2014-05-09T10:08:13Z</time>
      </trkpt>
      <trkpt lat="42.72928" lon="1.52277">
        <ele>2034</ele>
        <time>2014-05-09T10:08:23Z</time>
      </trkpt>
      <trkpt lat="42.72927" lon="1.52276">
        <ele>2034</ele>
        <time>2014-05-09T10:08:33Z</time>
      </trkpt>
      <trkpt lat="42.72921" lon="1.52276">
        <ele>2034</ele>
        <time>2014-05-09T10:08:43Z</time>
      </trkpt>
      <trkpt lat="42.72917" lon="1.52274">
        <ele>2034</ele>
        <time>2014-05-09T10:08:53Z</time>
      </trkpt>
      <trkpt lat="42.72915" lon="1.52276">
        <ele>2034</ele>
        <time>2014-05-09T10:09:03Z</time>
      </trkpt>
      <trkpt lat="42.72914" lon="1.52275">
        <ele>2037</ele>
        <time>2014-05-09T10:09:13Z</time>
      </trkpt>
      <trkpt lat="42.72914" lon="1.52274">
        <ele>2037</ele>
        <time>2014-05-09T10:09:23Z</time>
      </trkpt>
      <trkpt lat="42.72914" lon="1.52273">
        <ele>2037</ele>
        <time>2014-05-09T10:09:33Z</time>
      </trkpt>
      <trkpt lat="42.72914" lon="1.52273">
        <ele>2037</ele>
        <time>2014-05-09T10:09:43Z</time>
      </trkpt>
      <trkpt lat="42.72915" lon="1.52273">
        <ele>2037</ele>
        <time>2014-05-09T10:09:53Z</time>
      </trkpt>
      <trkpt lat="42.72915" lon="1.52273">
        <ele>2037</ele>
        <time>2014-05-09T10:10:03Z</time>
      </trkpt>
      <trkpt lat="42.72916" lon="1.52274">
        <ele>2037</ele>
        <time>2014-05-09T10:10:13Z</time>
      </trkpt>
      <trkpt lat="42.72916" lon="1.52274">
        <ele>2037</ele>
        <time>2014-05-09T10:10:23Z</time>
      </trkpt>
      <trkpt lat="42.72917" lon="1.52275">
        <ele>2037</ele>
        <time>2014-05-09T10:10:33Z</time>
      </trkpt>
      <trkpt lat="42.72917" lon="1.52276">
        <ele>2037</ele>
        <time>2014-05-09T10:10:44Z</time>
      </trkpt>
      <trkpt lat="42.72916" lon="1.52276">
        <ele>2037</ele>
        <time>2014-05-09T10:10:54Z</time>
      </trkpt>
      <trkpt lat="42.72916" lon="1.52277">
        <ele>2037</ele>
        <time>2014-05-09T10:11:04Z</time>
      </trkpt>
      <trkpt lat="42.72914" lon="1.52277">
        <ele>2037</ele>
        <time>2014-05-09T10:11:14Z</time>
      </trkpt>
      <trkpt lat="42.72909" lon="1.5228">
        <ele>2037</ele>
        <time>2014-05-09T10:11:24Z</time>
      </trkpt>
      <trkpt lat="42.72904" lon="1.52284">
        <ele>2040</ele>
        <time>2014-05-09T10:11:34Z</time>
      </trkpt>
      <trkpt lat="42.72898" lon="1.52287">
        <ele>2040</ele>
        <time>2014-05-09T10:11:44Z</time>
      </trkpt>
      <trkpt lat="42.72892" lon="1.52293">
        <ele>2040</ele>
        <time>2014-05-09T10:11:54Z</time>
      </trkpt>
      <trkpt lat="42.72888" lon="1.52298">
        <ele>2045</ele>
        <time>2014-05-09T10:12:04Z</time>
      </trkpt>
      <trkpt lat="42.72883" lon="1.52302">
        <ele>2045</ele>
        <time>2014-05-09T10:12:14Z</time>
      </trkpt>
      <trkpt lat="42.72879" lon="1.52305">
        <ele>2045</ele>
        <time>2014-05-09T10:12:24Z</time>
      </trkpt>
      <trkpt lat="42.72876" lon="1.52308">
        <ele>2049</ele>
        <time>2014-05-09T10:12:34Z</time>
      </trkpt>
      <trkpt lat="42.72871" lon="1.52312">
        <ele>2049</ele>
        <time>2014-05-09T10:12:44Z</time>
      </trkpt>
      <trkpt lat="42.72867" lon="1.52316">
        <ele>2049</ele>
        <time>2014-05-09T10:12:55Z</time>
      </trkpt>
      <trkpt lat="42.72864" lon="1.52321">
        <ele>2049</ele>
        <time>2014-05-09T10:13:05Z</time>
      </trkpt>
      <trkpt lat="42.72862" lon="1.5232">
        <ele>2055</ele>
        <time>2014-05-09T10:13:15Z</time>
      </trkpt>
      <trkpt lat="42.72861" lon="1.52324">
        <ele>2055</ele>
        <time>2014-05-09T10:13:25Z</time>
      </trkpt>
      <trkpt lat="42.7286" lon="1.52326">
        <ele>2055</ele>
        <time>2014-05-09T10:13:35Z</time>
      </trkpt>
      <trkpt lat="42.72858" lon="1.52332">
        <ele>2060</ele>
        <time>2014-05-09T10:13:45Z</time>
      </trkpt>
      <trkpt lat="42.7286" lon="1.52332">
        <ele>2060</ele>
        <time>2014-05-09T10:13:55Z</time>
      </trkpt>
      <trkpt lat="42.72862" lon="1.52335">
        <ele>2060</ele>
        <time>2014-05-09T10:14:05Z</time>
      </trkpt>
      <trkpt lat="42.72863" lon="1.52336">
        <ele>2060</ele>
        <time>2014-05-09T10:14:15Z</time>
      </trkpt>
      <trkpt lat="42.72863" lon="1.52336">
        <ele>2060</ele>
        <time>2014-05-09T10:14:25Z</time>
      </trkpt>
      <trkpt lat="42.72863" lon="1.52336">
        <ele>2060</ele>
        <time>2014-05-09T10:14:35Z</time>
      </trkpt>
      <trkpt lat="42.72863" lon="1.52335">
        <ele>2060</ele>
        <time>2014-05-09T10:14:45Z</time>
      </trkpt>
      <trkpt lat="42.72862" lon="1.52335">
        <ele>2060</ele>
        <time>2014-05-09T10:14:56Z</time>
      </trkpt>
      <trkpt lat="42.7286" lon="1.52334">
        <ele>2060</ele>
        <time>2014-05-09T10:15:05Z</time>
      </trkpt>
      <trkpt lat="42.7286" lon="1.52334">
        <ele>2060</ele>
        <time>2014-05-09T10:15:16Z</time>
      </trkpt>
      <trkpt lat="42.7286" lon="1.52334">
        <ele>2060</ele>
        <time>2014-05-09T10:15:26Z</time>
      </trkpt>
      <trkpt lat="42.7286" lon="1.52334">
        <ele>2059</ele>
        <time>2014-05-09T10:15:36Z</time>
      </trkpt>
      <trkpt lat="42.7286" lon="1.52334">
        <ele>2063</ele>
        <time>2014-05-09T10:15:46Z</time>
      </trkpt>
      <trkpt lat="42.7286" lon="1.52335">
        <ele>2063</ele>
        <time>2014-05-09T10:15:56Z</time>
      </trkpt>
      <trkpt lat="42.7286" lon="1.52336">
        <ele>2063</ele>
        <time>2014-05-09T10:16:06Z</time>
      </trkpt>
      <trkpt lat="42.72861" lon="1.52336">
        <ele>2063</ele>
        <time>2014-05-09T10:16:16Z</time>
      </trkpt>
      <trkpt lat="42.72861" lon="1.52337">
        <ele>2063</ele>
        <time>2014-05-09T10:16:26Z</time>
      </trkpt>
      <trkpt lat="42.72861" lon="1.52337">
        <ele>2063</ele>
        <time>2014-05-09T10:16:36Z</time>
      </trkpt>
      <trkpt lat="42.72861" lon="1.52336">
        <ele>2063</ele>
        <time>2014-05-09T10:16:46Z</time>
      </trkpt>
      <trkpt lat="42.72862" lon="1.52336">
        <ele>2063</ele>
        <time>2014-05-09T10:16:56Z</time>
      </trkpt>
      <trkpt lat="42.72861" lon="1.52337">
        <ele>2063</ele>
        <time>2014-05-09T10:17:06Z</time>
      </trkpt>
      <trkpt lat="42.72861" lon="1.52336">
        <ele>2063</ele>
        <time>2014-05-09T10:17:16Z</time>
      </trkpt>
      <trkpt lat="42.72862" lon="1.52336">
        <ele>2063</ele>
        <time>2014-05-09T10:17:26Z</time>
      </trkpt>
      <trkpt lat="42.72862" lon="1.52335">
        <ele>2063</ele>
        <time>2014-05-09T10:17:36Z</time>
      </trkpt>
      <trkpt lat="42.7286" lon="1.52337">
        <ele>2063</ele>
        <time>2014-05-09T10:17:46Z</time>
      </trkpt>
      <trkpt lat="42.72857" lon="1.52341">
        <ele>2065</ele>
        <time>2014-05-09T10:17:57Z</time>
      </trkpt>
      <trkpt lat="42.72852" lon="1.52341">
        <ele>2059</ele>
        <time>2014-05-09T10:18:07Z</time>
      </trkpt>
      <trkpt lat="42.72847" lon="1.52342">
        <ele>2067</ele>
        <time>2014-05-09T10:18:17Z</time>
      </trkpt>
      <trkpt lat="42.72846" lon="1.52343">
        <ele>2067</ele>
        <time>2014-05-09T10:18:27Z</time>
      </trkpt>
      <trkpt lat="42.72842" lon="1.52342">
        <ele>2071</ele>
        <time>2014-05-09T10:18:37Z</time>
      </trkpt>
      <trkpt lat="42.72837" lon="1.52343">
        <ele>2071</ele>
        <time>2014-05-09T10:18:47Z</time>
      </trkpt>
      <trkpt lat="42.72833" lon="1.52346">
        <ele>2071</ele>
        <time>2014-05-09T10:18:57Z</time>
      </trkpt>
      <trkpt lat="42.72828" lon="1.52349">
        <ele>2076</ele>
        <time>2014-05-09T10:19:07Z</time>
      </trkpt>
      <trkpt lat="42.72828" lon="1.52354">
        <ele>2076</ele>
        <time>2014-05-09T10:19:17Z</time>
      </trkpt>
      <trkpt lat="42.72825" lon="1.52357">
        <ele>2076</ele>
        <time>2014-05-09T10:19:27Z</time>
      </trkpt>
      <trkpt lat="42.72822" lon="1.52358">
        <ele>2081</ele>
        <time>2014-05-09T10:19:37Z</time>
      </trkpt>
      <trkpt lat="42.72817" lon="1.52358">
        <ele>2081</ele>
        <time>2014-05-09T10:19:47Z</time>
      </trkpt>
      <trkpt lat="42.72812" lon="1.52357">
        <ele>2085</ele>
        <time>2014-05-09T10:19:57Z</time>
      </trkpt>
      <trkpt lat="42.72806" lon="1.52358">
        <ele>2085</ele>
        <time>2014-05-09T10:20:07Z</time>
      </trkpt>
      <trkpt lat="42.72806" lon="1.52357">
        <ele>2085</ele>
        <time>2014-05-09T10:20:17Z</time>
      </trkpt>
      <trkpt lat="42.72804" lon="1.52358">
        <ele>2089</ele>
        <time>2014-05-09T10:20:27Z</time>
      </trkpt>
      <trkpt lat="42.72805" lon="1.52357">
        <ele>2089</ele>
        <time>2014-05-09T10:20:37Z</time>
      </trkpt>
      <trkpt lat="42.72807" lon="1.52357">
        <ele>2089</ele>
        <time>2014-05-09T10:20:48Z</time>
      </trkpt>
      <trkpt lat="42.72808" lon="1.52356">
        <ele>2089</ele>
        <time>2014-05-09T10:20:58Z</time>
      </trkpt>
      <trkpt lat="42.72808" lon="1.52355">
        <ele>2089</ele>
        <time>2014-05-09T10:21:08Z</time>
      </trkpt>
      <trkpt lat="42.72808" lon="1.52355">
        <ele>2089</ele>
        <time>2014-05-09T10:21:18Z</time>
      </trkpt>
      <trkpt lat="42.72808" lon="1.52355">
        <ele>2089</ele>
        <time>2014-05-09T10:21:28Z</time>
      </trkpt>
      <trkpt lat="42.72807" lon="1.52355">
        <ele>2089</ele>
        <time>2014-05-09T10:21:38Z</time>
      </trkpt>
      <trkpt lat="42.72807" lon="1.52355">
        <ele>2088</ele>
        <time>2014-05-09T10:21:48Z</time>
      </trkpt>
      <trkpt lat="42.72806" lon="1.52355">
        <ele>2088</ele>
        <time>2014-05-09T10:21:58Z</time>
      </trkpt>
      <trkpt lat="42.72804" lon="1.52358">
        <ele>2088</ele>
        <time>2014-05-09T10:22:08Z</time>
      </trkpt>
      <trkpt lat="42.72801" lon="1.52362">
        <ele>2088</ele>
        <time>2014-05-09T10:22:18Z</time>
      </trkpt>
      <trkpt lat="42.728" lon="1.52362">
        <ele>2092</ele>
        <time>2014-05-09T10:22:28Z</time>
      </trkpt>
      <trkpt lat="42.728" lon="1.52363">
        <ele>2092</ele>
        <time>2014-05-09T10:22:38Z</time>
      </trkpt>
      <trkpt lat="42.728" lon="1.52363">
        <ele>2092</ele>
        <time>2014-05-09T10:22:48Z</time>
      </trkpt>
      <trkpt lat="42.728" lon="1.52363">
        <ele>2092</ele>
        <time>2014-05-09T10:22:58Z</time>
      </trkpt>
      <trkpt lat="42.728" lon="1.52364">
        <ele>2092</ele>
        <time>2014-05-09T10:23:08Z</time>
      </trkpt>
      <trkpt lat="42.72801" lon="1.52364">
        <ele>2092</ele>
        <time>2014-05-09T10:23:18Z</time>
      </trkpt>
      <trkpt lat="42.72801" lon="1.52364">
        <ele>2092</ele>
        <time>2014-05-09T10:23:29Z</time>
      </trkpt>
      <trkpt lat="42.72801" lon="1.52364">
        <ele>2092</ele>
        <time>2014-05-09T10:23:39Z</time>
      </trkpt>
      <trkpt lat="42.72801" lon="1.52364">
        <ele>2092</ele>
        <time>2014-05-09T10:23:49Z</time>
      </trkpt>
      <trkpt lat="42.72801" lon="1.52364">
        <ele>2092</ele>
        <time>2014-05-09T10:23:59Z</time>
      </trkpt>
      <trkpt lat="42.72801" lon="1.52364">
        <ele>2092</ele>
        <time>2014-05-09T10:24:09Z</time>
      </trkpt>
      <trkpt lat="42.72797" lon="1.52362">
        <ele>2092</ele>
        <time>2014-05-09T10:24:19Z</time>
      </trkpt>
      <trkpt lat="42.72795" lon="1.52367">
        <ele>2092</ele>
        <time>2014-05-09T10:24:29Z</time>
      </trkpt>
      <trkpt lat="42.72792" lon="1.52372">
        <ele>2098</ele>
        <time>2014-05-09T10:24:39Z</time>
      </trkpt>
      <trkpt lat="42.72789" lon="1.52376">
        <ele>2098</ele>
        <time>2014-05-09T10:24:49Z</time>
      </trkpt>
      <trkpt lat="42.72789" lon="1.52378">
        <ele>2098</ele>
        <time>2014-05-09T10:24:59Z</time>
      </trkpt>
      <trkpt lat="42.72787" lon="1.52382">
        <ele>2103</ele>
        <time>2014-05-09T10:25:09Z</time>
      </trkpt>
      <trkpt lat="42.72786" lon="1.52384">
        <ele>2103</ele>
        <time>2014-05-09T10:25:19Z</time>
      </trkpt>
      <trkpt lat="42.72788" lon="1.52385">
        <ele>2103</ele>
        <time>2014-05-09T10:25:29Z</time>
      </trkpt>
      <trkpt lat="42.72788" lon="1.52384">
        <ele>2103</ele>
        <time>2014-05-09T10:25:39Z</time>
      </trkpt>
      <trkpt lat="42.72789" lon="1.52383">
        <ele>2103</ele>
        <time>2014-05-09T10:25:49Z</time>
      </trkpt>
      <trkpt lat="42.7279" lon="1.52383">
        <ele>2103</ele>
        <time>2014-05-09T10:25:59Z</time>
      </trkpt>
      <trkpt lat="42.7279" lon="1.52383">
        <ele>2103</ele>
        <time>2014-05-09T10:26:09Z</time>
      </trkpt>
      <trkpt lat="42.7279" lon="1.52383">
        <ele>2103</ele>
        <time>2014-05-09T10:26:19Z</time>
      </trkpt>
      <trkpt lat="42.7279" lon="1.52383">
        <ele>2103</ele>
        <time>2014-05-09T10:26:30Z</time>
      </trkpt>
      <trkpt lat="42.7279" lon="1.52382">
        <ele>2103</ele>
        <time>2014-05-09T10:26:40Z</time>
      </trkpt>
      <trkpt lat="42.7279" lon="1.52382">
        <ele>2103</ele>
        <time>2014-05-09T10:26:50Z</time>
      </trkpt>
      <trkpt lat="42.72789" lon="1.52382">
        <ele>2103</ele>
        <time>2014-05-09T10:27:00Z</time>
      </trkpt>
      <trkpt lat="42.72789" lon="1.52388">
        <ele>2103</ele>
        <time>2014-05-09T10:27:10Z</time>
      </trkpt>
      <trkpt lat="42.72788" lon="1.52393">
        <ele>2107</ele>
        <time>2014-05-09T10:27:20Z</time>
      </trkpt>
      <trkpt lat="42.72788" lon="1.52398">
        <ele>2107</ele>
        <time>2014-05-09T10:27:30Z</time>
      </trkpt>
      <trkpt lat="42.72789" lon="1.52403">
        <ele>2107</ele>
        <time>2014-05-09T10:27:40Z</time>
      </trkpt>
      <trkpt lat="42.7279" lon="1.52411">
        <ele>2111</ele>
        <time>2014-05-09T10:27:50Z</time>
      </trkpt>
      <trkpt lat="42.72791" lon="1.52415">
        <ele>2115</ele>
        <time>2014-05-09T10:28:00Z</time>
      </trkpt>
      <trkpt lat="42.72784" lon="1.52412">
        <ele>2115</ele>
        <time>2014-05-09T10:28:10Z</time>
      </trkpt>
      <trkpt lat="42.72779" lon="1.5241">
        <ele>2115</ele>
        <time>2014-05-09T10:28:20Z</time>
      </trkpt>
      <trkpt lat="42.72773" lon="1.52408">
        <ele>2122</ele>
        <time>2014-05-09T10:28:30Z</time>
      </trkpt>
      <trkpt lat="42.72766" lon="1.52403">
        <ele>2122</ele>
        <time>2014-05-09T10:28:40Z</time>
      </trkpt>
      <trkpt lat="42.7276" lon="1.524">
        <ele>2122</ele>
        <time>2014-05-09T10:28:51Z</time>
      </trkpt>
      <trkpt lat="42.72759" lon="1.52398">
        <ele>2122</ele>
        <time>2014-05-09T10:29:01Z</time>
      </trkpt>
      <trkpt lat="42.7276" lon="1.52399">
        <ele>2122</ele>
        <time>2014-05-09T10:29:11Z</time>
      </trkpt>
      <trkpt lat="42.7276" lon="1.52399">
        <ele>2122</ele>
        <time>2014-05-09T10:29:21Z</time>
      </trkpt>
      <trkpt lat="42.7276" lon="1.524">
        <ele>2122</ele>
        <time>2014-05-09T10:29:31Z</time>
      </trkpt>
      <trkpt lat="42.7276" lon="1.524">
        <ele>2122</ele>
        <time>2014-05-09T10:29:41Z</time>
      </trkpt>
      <trkpt lat="42.72759" lon="1.52399">
        <ele>2122</ele>
        <time>2014-05-09T10:29:51Z</time>
      </trkpt>
      <trkpt lat="42.72754" lon="1.52397">
        <ele>2122</ele>
        <time>2014-05-09T10:30:01Z</time>
      </trkpt>
      <trkpt lat="42.72749" lon="1.52394">
        <ele>2128</ele>
        <time>2014-05-09T10:30:11Z</time>
      </trkpt>
      <trkpt lat="42.72744" lon="1.52391">
        <ele>2128</ele>
        <time>2014-05-09T10:30:21Z</time>
      </trkpt>
      <trkpt lat="42.72739" lon="1.52385">
        <ele>2128</ele>
        <time>2014-05-09T10:30:31Z</time>
      </trkpt>
      <trkpt lat="42.72738" lon="1.52384">
        <ele>2128</ele>
        <time>2014-05-09T10:30:41Z</time>
      </trkpt>
      <trkpt lat="42.72738" lon="1.52384">
        <ele>2128</ele>
        <time>2014-05-09T10:30:51Z</time>
      </trkpt>
      <trkpt lat="42.72738" lon="1.52385">
        <ele>2128</ele>
        <time>2014-05-09T10:31:01Z</time>
      </trkpt>
      <trkpt lat="42.72739" lon="1.52385">
        <ele>2128</ele>
        <time>2014-05-09T10:31:11Z</time>
      </trkpt>
      <trkpt lat="42.72739" lon="1.52386">
        <ele>2128</ele>
        <time>2014-05-09T10:31:22Z</time>
      </trkpt>
      <trkpt lat="42.7274" lon="1.52386">
        <ele>2128</ele>
        <time>2014-05-09T10:31:32Z</time>
      </trkpt>
      <trkpt lat="42.72741" lon="1.52387">
        <ele>2128</ele>
        <time>2014-05-09T10:31:42Z</time>
      </trkpt>
      <trkpt lat="42.72741" lon="1.52388">
        <ele>2128</ele>
        <time>2014-05-09T10:31:52Z</time>
      </trkpt>
      <trkpt lat="42.72741" lon="1.52388">
        <ele>2128</ele>
        <time>2014-05-09T10:32:02Z</time>
      </trkpt>
      <trkpt lat="42.72741" lon="1.52388">
        <ele>2128</ele>
        <time>2014-05-09T10:32:12Z</time>
      </trkpt>
      <trkpt lat="42.7274" lon="1.52388">
        <ele>2128</ele>
        <time>2014-05-09T10:32:22Z</time>
      </trkpt>
      <trkpt lat="42.72738" lon="1.52387">
        <ele>2130</ele>
        <time>2014-05-09T10:32:32Z</time>
      </trkpt>
      <trkpt lat="42.72736" lon="1.52387">
        <ele>2130</ele>
        <time>2014-05-09T10:32:42Z</time>
      </trkpt>
      <trkpt lat="42.72732" lon="1.5239">
        <ele>2130</ele>
        <time>2014-05-09T10:32:52Z</time>
      </trkpt>
      <trkpt lat="42.72728" lon="1.52391">
        <ele>2130</ele>
        <time>2014-05-09T10:33:02Z</time>
      </trkpt>
      <trkpt lat="42.72725" lon="1.5239">
        <ele>2134</ele>
        <time>2014-05-09T10:33:12Z</time>
      </trkpt>
      <trkpt lat="42.72724" lon="1.52389">
        <ele>2134</ele>
        <time>2014-05-09T10:33:22Z</time>
      </trkpt>
      <trkpt lat="42.72724" lon="1.52388">
        <ele>2134</ele>
        <time>2014-05-09T10:33:32Z</time>
      </trkpt>
      <trkpt lat="42.72725" lon="1.52386">
        <ele>2134</ele>
        <time>2014-05-09T10:33:42Z</time>
      </trkpt>
      <trkpt lat="42.72725" lon="1.52386">
        <ele>2134</ele>
        <time>2014-05-09T10:33:52Z</time>
      </trkpt>
      <trkpt lat="42.72725" lon="1.52384">
        <ele>2134</ele>
        <time>2014-05-09T10:34:03Z</time>
      </trkpt>
      <trkpt lat="42.72725" lon="1.52385">
        <ele>2134</ele>
        <time>2014-05-09T10:34:13Z</time>
      </trkpt>
      <trkpt lat="42.72725" lon="1.52384">
        <ele>2134</ele>
        <time>2014-05-09T10:34:23Z</time>
      </trkpt>
      <trkpt lat="42.72723" lon="1.5239">
        <ele>2134</ele>
        <time>2014-05-09T10:34:33Z</time>
      </trkpt>
      <trkpt lat="42.72723" lon="1.52394">
        <ele>2138</ele>
        <time>2014-05-09T10:34:43Z</time>
      </trkpt>
      <trkpt lat="42.72721" lon="1.52397">
        <ele>2138</ele>
        <time>2014-05-09T10:34:53Z</time>
      </trkpt>
      <trkpt lat="42.7272" lon="1.524">
        <ele>2138</ele>
        <time>2014-05-09T10:35:03Z</time>
      </trkpt>
      <trkpt lat="42.72717" lon="1.52402">
        <ele>2142</ele>
        <time>2014-05-09T10:35:13Z</time>
      </trkpt>
      <trkpt lat="42.72717" lon="1.52402">
        <ele>2142</ele>
        <time>2014-05-09T10:35:23Z</time>
      </trkpt>
      <trkpt lat="42.72714" lon="1.52403">
        <ele>2142</ele>
        <time>2014-05-09T10:35:33Z</time>
      </trkpt>
      <trkpt lat="42.72709" lon="1.52401">
        <ele>2142</ele>
        <time>2014-05-09T10:35:43Z</time>
      </trkpt>
      <trkpt lat="42.72709" lon="1.52403">
        <ele>2142</ele>
        <time>2014-05-09T10:35:53Z</time>
      </trkpt>
      <trkpt lat="42.72708" lon="1.52407">
        <ele>2148</ele>
        <time>2014-05-09T10:36:03Z</time>
      </trkpt>
      <trkpt lat="42.72707" lon="1.52409">
        <ele>2148</ele>
        <time>2014-05-09T10:36:13Z</time>
      </trkpt>
      <trkpt lat="42.72707" lon="1.52409">
        <ele>2148</ele>
        <time>2014-05-09T10:36:23Z</time>
      </trkpt>
      <trkpt lat="42.72708" lon="1.52409">
        <ele>2148</ele>
        <time>2014-05-09T10:36:33Z</time>
      </trkpt>
      <trkpt lat="42.72708" lon="1.52407">
        <ele>2148</ele>
        <time>2014-05-09T10:36:44Z</time>
      </trkpt>
      <trkpt lat="42.72709" lon="1.52406">
        <ele>2148</ele>
        <time>2014-05-09T10:36:54Z</time>
      </trkpt>
      <trkpt lat="42.72709" lon="1.52406">
        <ele>2148</ele>
        <time>2014-05-09T10:37:04Z</time>
      </trkpt>
      <trkpt lat="42.72707" lon="1.52412">
        <ele>2148</ele>
        <time>2014-05-09T10:37:14Z</time>
      </trkpt>
      <trkpt lat="42.72709" lon="1.52415">
        <ele>2152</ele>
        <time>2014-05-09T10:37:24Z</time>
      </trkpt>
      <trkpt lat="42.72708" lon="1.52418">
        <ele>2152</ele>
        <time>2014-05-09T10:37:34Z</time>
      </trkpt>
      <trkpt lat="42.72706" lon="1.52419">
        <ele>2152</ele>
        <time>2014-05-09T10:37:44Z</time>
      </trkpt>
      <trkpt lat="42.72704" lon="1.52425">
        <ele>2152</ele>
        <time>2014-05-09T10:37:54Z</time>
      </trkpt>
      <trkpt lat="42.72701" lon="1.52428">
        <ele>2156</ele>
        <time>2014-05-09T10:38:04Z</time>
      </trkpt>
      <trkpt lat="42.727" lon="1.52427">
        <ele>2156</ele>
        <time>2014-05-09T10:38:14Z</time>
      </trkpt>
      <trkpt lat="42.72697" lon="1.5243">
        <ele>2156</ele>
        <time>2014-05-09T10:38:24Z</time>
      </trkpt>
      <trkpt lat="42.72694" lon="1.52437">
        <ele>2156</ele>
        <time>2014-05-09T10:38:34Z</time>
      </trkpt>
      <trkpt lat="42.72694" lon="1.52442">
        <ele>2161</ele>
        <time>2014-05-09T10:38:44Z</time>
      </trkpt>
      <trkpt lat="42.72694" lon="1.52442">
        <ele>2161</ele>
        <time>2014-05-09T10:38:54Z</time>
      </trkpt>
      <trkpt lat="42.72694" lon="1.52441">
        <ele>2161</ele>
        <time>2014-05-09T10:39:04Z</time>
      </trkpt>
      <trkpt lat="42.72695" lon="1.52441">
        <ele>2161</ele>
        <time>2014-05-09T10:39:14Z</time>
      </trkpt>
      <trkpt lat="42.72695" lon="1.52441">
        <ele>2161</ele>
        <time>2014-05-09T10:39:25Z</time>
      </trkpt>
      <trkpt lat="42.72695" lon="1.52441">
        <ele>2161</ele>
        <time>2014-05-09T10:39:35Z</time>
      </trkpt>
      <trkpt lat="42.72695" lon="1.52441">
        <ele>2161</ele>
        <time>2014-05-09T10:39:45Z</time>
      </trkpt>
      <trkpt lat="42.72697" lon="1.52441">
        <ele>2161</ele>
        <time>2014-05-09T10:39:55Z</time>
      </trkpt>
      <trkpt lat="42.72698" lon="1.52441">
        <ele>2161</ele>
        <time>2014-05-09T10:40:05Z</time>
      </trkpt>
      <trkpt lat="42.72699" lon="1.52442">
        <ele>2161</ele>
        <time>2014-05-09T10:40:15Z</time>
      </trkpt>
      <trkpt lat="42.72699" lon="1.52442">
        <ele>2161</ele>
        <time>2014-05-09T10:40:25Z</time>
      </trkpt>
      <trkpt lat="42.72699" lon="1.52442">
        <ele>2161</ele>
        <time>2014-05-09T10:40:35Z</time>
      </trkpt>
      <trkpt lat="42.72699" lon="1.52442">
        <ele>2161</ele>
        <time>2014-05-09T10:40:45Z</time>
      </trkpt>
      <trkpt lat="42.72692" lon="1.52444">
        <ele>2161</ele>
        <time>2014-05-09T10:40:55Z</time>
      </trkpt>
      <trkpt lat="42.72688" lon="1.52444">
        <ele>2161</ele>
        <time>2014-05-09T10:41:05Z</time>
      </trkpt>
      <trkpt lat="42.72684" lon="1.52444">
        <ele>2162</ele>
        <time>2014-05-09T10:41:15Z</time>
      </trkpt>
      <trkpt lat="42.72683" lon="1.52443">
        <ele>2162</ele>
        <time>2014-05-09T10:41:25Z</time>
      </trkpt>
      <trkpt lat="42.72683" lon="1.52441">
        <ele>2162</ele>
        <time>2014-05-09T10:41:35Z</time>
      </trkpt>
      <trkpt lat="42.72683" lon="1.5244">
        <ele>2162</ele>
        <time>2014-05-09T10:41:45Z</time>
      </trkpt>
      <trkpt lat="42.7268" lon="1.52442">
        <ele>2162</ele>
        <time>2014-05-09T10:41:56Z</time>
      </trkpt>
      <trkpt lat="42.72673" lon="1.52444">
        <ele>2162</ele>
        <time>2014-05-09T10:42:06Z</time>
      </trkpt>
      <trkpt lat="42.72667" lon="1.52448">
        <ele>2169</ele>
        <time>2014-05-09T10:42:16Z</time>
      </trkpt>
      <trkpt lat="42.72662" lon="1.52452">
        <ele>2169</ele>
        <time>2014-05-09T10:42:26Z</time>
      </trkpt>
      <trkpt lat="42.72657" lon="1.52454">
        <ele>2169</ele>
        <time>2014-05-09T10:42:36Z</time>
      </trkpt>
      <trkpt lat="42.72654" lon="1.52453">
        <ele>2169</ele>
        <time>2014-05-09T10:42:46Z</time>
      </trkpt>
      <trkpt lat="42.72654" lon="1.52453">
        <ele>2169</ele>
        <time>2014-05-09T10:42:56Z</time>
      </trkpt>
      <trkpt lat="42.72655" lon="1.52452">
        <ele>2169</ele>
        <time>2014-05-09T10:43:06Z</time>
      </trkpt>
      <trkpt lat="42.72655" lon="1.52451">
        <ele>2169</ele>
        <time>2014-05-09T10:43:16Z</time>
      </trkpt>
      <trkpt lat="42.72654" lon="1.5245">
        <ele>2169</ele>
        <time>2014-05-09T10:43:26Z</time>
      </trkpt>
      <trkpt lat="42.72647" lon="1.52442">
        <ele>2169</ele>
        <time>2014-05-09T10:43:36Z</time>
      </trkpt>
      <trkpt lat="42.72643" lon="1.52437">
        <ele>2169</ele>
        <time>2014-05-09T10:43:46Z</time>
      </trkpt>
      <trkpt lat="42.7264" lon="1.52434">
        <ele>2169</ele>
        <time>2014-05-09T10:43:56Z</time>
      </trkpt>
      <trkpt lat="42.72635" lon="1.52429">
        <ele>2173</ele>
        <time>2014-05-09T10:44:07Z</time>
      </trkpt>
      <trkpt lat="42.72633" lon="1.52424">
        <ele>2173</ele>
        <time>2014-05-09T10:44:17Z</time>
      </trkpt>
      <trkpt lat="42.72633" lon="1.52423">
        <ele>2173</ele>
        <time>2014-05-09T10:44:27Z</time>
      </trkpt>
      <trkpt lat="42.72632" lon="1.52425">
        <ele>2173</ele>
        <time>2014-05-09T10:44:37Z</time>
      </trkpt>
      <trkpt lat="42.72631" lon="1.52427">
        <ele>2173</ele>
        <time>2014-05-09T10:44:47Z</time>
      </trkpt>
      <trkpt lat="42.72631" lon="1.52428">
        <ele>2178</ele>
        <time>2014-05-09T10:44:57Z</time>
      </trkpt>
      <trkpt lat="42.72632" lon="1.52428">
        <ele>2178</ele>
        <time>2014-05-09T10:45:07Z</time>
      </trkpt>
    </trkseg>
  </trk>
</gpx>